PWSweather.com
Personal Weather Stations
Station Observations
WHAKATANE1
Whakatane, WhakataneNZ

WhakataneWhakataneNZ

Lat: -37.960954, Lon: 176.9768

Elevation: 10

Station Type: Lacrosse

Latest ConditionsUpdated 6:19:00 AM GMT+12:12 Saturday, Jul 26, 2014
Currently Today's Max Today's Min Today's Average
Temperature 27.5°F-2.5°C 34.9°F1.6°C 27.5°F-2.5°C 30.7°F-0.7°C
Dew Point 27.3°F-2.6°C 33.3°F0.7°C 27.3°F-2.6°C 30.2°F-1.0°C
Winds 1.4 mph NE2.3 kmh NE 2.3 mph NW3.7 kmh NW - 0.9 mph 1.4 kmh
Wind Gusts 2.2 mph3.5 kmh 3.8 mph6.1 kmh - -
Humidity 99% 99% 93% 98%
Pressure 29.64 in1003.7 mb 29.64 in1003.7 mb 29.57 in1001.4 mb -
Hour Temp Dew Point Humidity Winds Wind Gusts Pressure Precip Precip Rate Daily Precip Total
06:19 AM 27.5°F-2.5°C 27.3°F-2.6°C 99% 1.4 mph NE2.3 kmh NE 2.2 mph3.5 kmh 29.64 in1003.7 mb 0.00 in0.0 mm 0.00 in/hr0.0 mm/hr 0.00 in0.0 mm
06:18 AM 27.5°F-2.5°C 27.3°F-2.6°C 99% 1.4 mph NE2.3 kmh NE 2.2 mph3.5 kmh 29.64 in1003.7 mb 0.00 in0.0 mm 0.00 in/hr0.0 mm/hr 0.00 in0.0 mm
06:17 AM 27.5°F-2.5°C 27.3°F-2.6°C 99% 1.3 mph NNE2.1 kmh NNE 2.2 mph3.5 kmh 29.64 in1003.7 mb 0.00 in0.0 mm 0.00 in/hr0.0 mm/hr 0.00 in0.0 mm
06:16 AM 27.7°F-2.4°C 27.5°F-2.5°C 99% 1.2 mph NNE1.9 kmh NNE 2.2 mph3.5 kmh 29.64 in1003.7 mb 0.00 in0.0 mm 0.00 in/hr0.0 mm/hr 0.00 in0.0 mm
06:15 AM 27.7°F-2.4°C 27.5°F-2.5°C 99% 1.2 mph NNE1.9 kmh NNE 2.2 mph3.5 kmh 29.63 in1003.4 mb 0.00 in0.0 mm 0.00 in/hr0.0 mm/hr 0.00 in0.0 mm
06:14 AM 27.7°F-2.4°C 27.5°F-2.5°C 99% 1.2 mph NNE1.9 kmh NNE 2.2 mph3.5 kmh 29.64 in1003.7 mb 0.00 in0.0 mm 0.00 in/hr0.0 mm/hr 0.00 in0.0 mm
06:13 AM 27.7°F-2.4°C 27.5°F-2.5°C 99% 1.1 mph NNE1.8 kmh NNE 2.2 mph3.5 kmh 29.63 in1003.4 mb 0.00 in0.0 mm 0.00 in/hr0.0 mm/hr 0.00 in0.0 mm
06:12 AM 27.7°F-2.4°C 27.5°F-2.5°C 99% 1.2 mph NNE1.9 kmh NNE 2.2 mph3.5 kmh 29.63 in1003.4 mb 0.00 in0.0 mm 0.00 in/hr0.0 mm/hr 0.00 in0.0 mm
06:11 AM 27.5°F-2.5°C 27.3°F-2.6°C 99% 1.4 mph NNE2.3 kmh NNE 3.8 mph6.1 kmh 29.63 in1003.4 mb 0.00 in0.0 mm 0.00 in/hr0.0 mm/hr 0.00 in0.0 mm
06:10 AM 27.5°F-2.5°C 27.3°F-2.6°C 99% 1.6 mph NE2.6 kmh NE 3.8 mph6.1 kmh 29.63 in1003.4 mb 0.00 in0.0 mm 0.00 in/hr0.0 mm/hr 0.00 in0.0 mm
06:09 AM 27.5°F-2.5°C 27.3°F-2.6°C 99% 1.8 mph NE2.9 kmh NE 3.8 mph6.1 kmh 29.63 in1003.4 mb 0.00 in0.0 mm 0.00 in/hr0.0 mm/hr 0.00 in0.0 mm
06:08 AM 27.5°F-2.5°C 27.3°F-2.6°C 99% 1.8 mph NE2.9 kmh NE 3.8 mph6.1 kmh 29.63 in1003.4 mb 0.00 in0.0 mm 0.00 in/hr0.0 mm/hr 0.00 in0.0 mm
06:07 AM 27.5°F-2.5°C 27.3°F-2.6°C 99% 1.9 mph NE3.1 kmh NE 3.8 mph6.1 kmh 29.63 in1003.4 mb 0.00 in0.0 mm 0.00 in/hr0.0 mm/hr 0.00 in0.0 mm
06:06 AM 27.5°F-2.5°C 27.3°F-2.6°C 99% 2.0 mph NE3.2 kmh NE 3.8 mph6.1 kmh 29.63 in1003.4 mb 0.00 in0.0 mm 0.00 in/hr0.0 mm/hr 0.00 in0.0 mm
06:05 AM 27.5°F-2.5°C 27.3°F-2.6°C 99% 1.9 mph NE3.1 kmh NE 3.8 mph6.1 kmh 29.63 in1003.4 mb 0.00 in0.0 mm 0.00 in/hr0.0 mm/hr 0.00 in0.0 mm
06:04 AM 27.5°F-2.5°C 27.3°F-2.6°C 99% 1.9 mph NE3.1 kmh NE 3.8 mph6.1 kmh 29.63 in1003.4 mb 0.00 in0.0 mm 0.00 in/hr0.0 mm/hr 0.00 in0.0 mm
06:03 AM 27.5°F-2.5°C 27.3°F-2.6°C 99% 1.8 mph NE2.9 kmh NE 3.8 mph6.1 kmh 29.63 in1003.4 mb 0.00 in0.0 mm 0.00 in/hr0.0 mm/hr 0.00 in0.0 mm
06:02 AM 27.5°F-2.5°C 27.3°F-2.6°C 99% 1.7 mph NE2.7 kmh NE 3.8 mph6.1 kmh 29.63 in1003.4 mb 0.00 in0.0 mm 0.00 in/hr0.0 mm/hr 0.00 in0.0 mm
06:01 AM 27.7°F-2.4°C 27.5°F-2.5°C 99% 1.4 mph NE2.3 kmh NE 3.8 mph6.1 kmh 29.63 in1003.4 mb 0.00 in0.0 mm 0.00 in/hr0.0 mm/hr 0.00 in0.0 mm
06:00 AM 27.7°F-2.4°C 27.5°F-2.5°C 99% 1.1 mph NE1.8 kmh NE 3.1 mph5.0 kmh 29.63 in1003.4 mb 0.00 in0.0 mm 0.00 in/hr0.0 mm/hr 0.00 in0.0 mm
05:59 AM 27.7°F-2.4°C 27.5°F-2.5°C 99% 0.8 mph NNE1.3 kmh NNE 3.1 mph5.0 kmh 29.63 in1003.4 mb 0.00 in0.0 mm 0.00 in/hr0.0 mm/hr 0.00 in0.0 mm
05:58 AM 27.7°F-2.4°C 27.5°F-2.5°C 99% 0.6 mph N1.0 kmh N 2.2 mph3.5 kmh 29.62 in1003.0 mb 0.00 in0.0 mm 0.00 in/hr0.0 mm/hr 0.00 in0.0 mm
05:57 AM 27.7°F-2.4°C 27.5°F-2.5°C 99% 0.5 mph NNW0.8 kmh NNW 2.2 mph3.5 kmh 29.62 in1003.0 mb 0.00 in0.0 mm 0.00 in/hr0.0 mm/hr 0.00 in0.0 mm
05:56 AM 27.9°F-2.3°C 27.6°F-2.4°C 99% 0.3 mph NW0.5 kmh NW 0.7 mph1.1 kmh 29.63 in1003.4 mb 0.00 in0.0 mm 0.00 in/hr0.0 mm/hr 0.00 in0.0 mm
05:55 AM 27.9°F-2.3°C 27.6°F-2.4°C 99% 0.4 mph NW0.6 kmh NW 0.7 mph1.1 kmh 29.62 in1003.0 mb 0.00 in0.0 mm 0.00 in/hr0.0 mm/hr 0.00 in0.0 mm
05:54 AM 27.9°F-2.3°C 27.6°F-2.4°C 99% 0.4 mph NW0.6 kmh NW 0.7 mph1.1 kmh 29.62 in1003.0 mb 0.00 in0.0 mm 0.00 in/hr0.0 mm/hr 0.00 in0.0 mm
05:53 AM 27.9°F-2.3°C 27.6°F-2.4°C 99% 0.4 mph NW0.6 kmh NW 0.7 mph1.1 kmh 29.62 in1003.0 mb 0.00 in0.0 mm 0.00 in/hr0.0 mm/hr 0.00 in0.0 mm
05:52 AM 27.9°F-2.3°C 27.6°F-2.4°C 99% 0.4 mph NW0.6 kmh NW 0.7 mph1.1 kmh 29.62 in1003.0 mb 0.00 in0.0 mm 0.00 in/hr0.0 mm/hr 0.00 in0.0 mm
05:51 AM 27.9°F-2.3°C 27.6°F-2.4°C 99% 0.4 mph NW0.6 kmh NW 0.7 mph1.1 kmh 29.62 in1003.0 mb 0.00 in0.0 mm 0.00 in/hr0.0 mm/hr 0.00 in0.0 mm
05:50 AM 28.0°F-2.2°C 27.8°F-2.3°C 99% 0.4 mph NW0.6 kmh NW 1.6 mph2.6 kmh 29.62 in1003.0 mb 0.00 in0.0 mm 0.00 in/hr0.0 mm/hr 0.00 in0.0 mm
05:49 AM 28.0°F-2.2°C 27.8°F-2.3°C 99% 0.5 mph NW0.8 kmh NW 1.6 mph2.6 kmh 29.62 in1003.0 mb 0.00 in0.0 mm 0.00 in/hr0.0 mm/hr 0.00 in0.0 mm
05:48 AM 28.0°F-2.2°C 27.8°F-2.3°C 99% 0.6 mph NW1.0 kmh NW 1.6 mph2.6 kmh 29.62 in1003.0 mb 0.00 in0.0 mm 0.00 in/hr0.0 mm/hr 0.00 in0.0 mm
05:47 AM 28.0°F-2.2°C 27.8°F-2.3°C 99% 0.7 mph NW1.1 kmh NW 1.6 mph2.6 kmh 29.62 in1003.0 mb 0.00 in0.0 mm 0.00 in/hr0.0 mm/hr 0.00 in0.0 mm
05:46 AM 28.0°F-2.2°C 27.8°F-2.3°C 99% 0.9 mph NW1.4 kmh NW 1.6 mph2.6 kmh 29.62 in1003.0 mb 0.00 in0.0 mm 0.00 in/hr0.0 mm/hr 0.00 in0.0 mm
05:45 AM 28.0°F-2.2°C 27.8°F-2.3°C 99% 1.0 mph NW1.6 kmh NW 2.2 mph3.5 kmh 29.62 in1003.0 mb 0.00 in0.0 mm 0.00 in/hr0.0 mm/hr 0.00 in0.0 mm
05:44 AM 28.0°F-2.2°C 27.8°F-2.3°C 99% 1.0 mph NW1.6 kmh NW 2.2 mph3.5 kmh 29.62 in1003.0 mb 0.00 in0.0 mm 0.00 in/hr0.0 mm/hr 0.00 in0.0 mm
05:43 AM 28.0°F-2.2°C 27.8°F-2.3°C 99% 1.0 mph NW1.6 kmh NW 2.2 mph3.5 kmh 29.62 in1003.0 mb 0.00 in0.0 mm 0.00 in/hr0.0 mm/hr 0.00 in0.0 mm
05:42 AM 28.0°F-2.2°C 27.8°F-2.3°C 99% 1.0 mph NW1.6 kmh NW 2.2 mph3.5 kmh 29.62 in1003.0 mb 0.00 in0.0 mm 0.00 in/hr0.0 mm/hr 0.00 in0.0 mm
05:41 AM 28.0°F-2.2°C 27.8°F-2.3°C 99% 1.0 mph NW1.6 kmh NW 2.2 mph3.5 kmh 29.62 in1003.0 mb 0.00 in0.0 mm 0.00 in/hr0.0 mm/hr 0.00 in0.0 mm
05:40 AM 28.0°F-2.2°C 27.8°F-2.3°C 99% 0.9 mph NW1.4 kmh NW 2.2 mph3.5 kmh 29.62 in1003.0 mb 0.00 in0.0 mm 0.00 in/hr0.0 mm/hr 0.00 in0.0 mm
05:39 AM 28.0°F-2.2°C 27.8°F-2.3°C 99% 0.7 mph NW1.1 kmh NW 2.2 mph3.5 kmh 29.62 in1003.0 mb 0.00 in0.0 mm 0.00 in/hr0.0 mm/hr 0.00 in0.0 mm
05:38 AM 28.0°F-2.2°C 27.8°F-2.3°C 99% 0.6 mph NW1.0 kmh NW 2.2 mph3.5 kmh 29.62 in1003.0 mb 0.00 in0.0 mm 0.00 in/hr0.0 mm/hr 0.00 in0.0 mm
05:37 AM 28.0°F-2.2°C 27.8°F-2.3°C 99% 0.5 mph NW0.8 kmh NW 2.2 mph3.5 kmh 29.62 in1003.0 mb 0.00 in0.0 mm 0.00 in/hr0.0 mm/hr 0.00 in0.0 mm
05:36 AM 27.9°F-2.3°C 27.6°F-2.4°C 99% 0.4 mph NW0.6 kmh NW 2.2 mph3.5 kmh 29.62 in1003.0 mb 0.00 in0.0 mm 0.00 in/hr0.0 mm/hr 0.00 in0.0 mm
05:35 AM 28.0°F-2.2°C 27.8°F-2.3°C 99% 0.3 mph NW0.5 kmh NW 2.2 mph3.5 kmh 29.62 in1003.0 mb 0.00 in0.0 mm 0.00 in/hr0.0 mm/hr 0.00 in0.0 mm
05:34 AM 27.9°F-2.3°C 27.6°F-2.4°C 99% 0.3 mph NW0.5 kmh NW 0.7 mph1.1 kmh 29.62 in1003.0 mb 0.00 in0.0 mm 0.00 in/hr0.0 mm/hr 0.00 in0.0 mm
05:33 AM 28.0°F-2.2°C 27.8°F-2.3°C 99% 0.4 mph NW0.6 kmh NW 0.7 mph1.1 kmh 29.62 in1003.0 mb 0.00 in0.0 mm 0.00 in/hr0.0 mm/hr 0.00 in0.0 mm
05:32 AM 28.0°F-2.2°C 27.8°F-2.3°C 99% 0.4 mph NW0.6 kmh NW 0.7 mph1.1 kmh 29.62 in1003.0 mb 0.00 in0.0 mm 0.00 in/hr0.0 mm/hr 0.00 in0.0 mm
05:31 AM 28.0°F-2.2°C 27.8°F-2.3°C 99% 0.4 mph NW0.6 kmh NW 0.7 mph1.1 kmh 29.62 in1003.0 mb 0.00 in0.0 mm 0.00 in/hr0.0 mm/hr 0.00 in0.0 mm
05:30 AM 28.0°F-2.2°C 27.8°F-2.3°C 99% 0.6 mph NW1.0 kmh NW 2.2 mph3.5 kmh 29.62 in1003.0 mb 0.00 in0.0 mm 0.00 in/hr0.0 mm/hr 0.00 in0.0 mm
05:29 AM 28.0°F-2.2°C 27.8°F-2.3°C 99% 0.8 mph NW1.3 kmh NW 2.2 mph3.5 kmh 29.62 in1003.0 mb 0.00 in0.0 mm 0.00 in/hr0.0 mm/hr 0.00 in0.0 mm
05:28 AM 28.0°F-2.2°C 27.8°F-2.3°C 99% 0.9 mph NW1.4 kmh NW 2.2 mph3.5 kmh 29.62 in1003.0 mb 0.00 in0.0 mm 0.00 in/hr0.0 mm/hr 0.00 in0.0 mm
05:27 AM 28.0°F-2.2°C 27.8°F-2.3°C 99% 0.8 mph NW1.3 kmh NW 2.2 mph3.5 kmh 29.62 in1003.0 mb 0.00 in0.0 mm 0.00 in/hr0.0 mm/hr 0.00 in0.0 mm
05:26 AM 28.2°F-2.1°C 28.0°F-2.2°C 99% 0.8 mph NW1.3 kmh NW 2.2 mph3.5 kmh 29.62 in1003.0 mb 0.00 in0.0 mm 0.00 in/hr0.0 mm/hr 0.00 in0.0 mm
05:25 AM 28.2°F-2.1°C 28.0°F-2.2°C 99% 0.7 mph NW1.1 kmh NW 2.2 mph3.5 kmh 29.62 in1003.0 mb 0.00 in0.0 mm 0.00 in/hr0.0 mm/hr 0.00 in0.0 mm
05:24 AM 28.2°F-2.1°C 28.0°F-2.2°C 99% 0.6 mph NW1.0 kmh NW 2.2 mph3.5 kmh 29.62 in1003.0 mb 0.00 in0.0 mm 0.00 in/hr0.0 mm/hr 0.00 in0.0 mm
05:23 AM 28.2°F-2.1°C 28.0°F-2.2°C 99% 0.6 mph NW1.0 kmh NW 2.2 mph3.5 kmh 29.62 in1003.0 mb 0.00 in0.0 mm 0.00 in/hr0.0 mm/hr 0.00 in0.0 mm
05:22 AM 28.2°F-2.1°C 28.0°F-2.2°C 99% 0.6 mph NW1.0 kmh NW 2.2 mph3.5 kmh 29.62 in1003.0 mb 0.00 in0.0 mm 0.00 in/hr0.0 mm/hr 0.00 in0.0 mm
05:21 AM 28.4°F-2.0°C 28.2°F-2.1°C 99% 0.5 mph NW0.8 kmh NW 2.2 mph3.5 kmh 29.62 in1003.0 mb 0.00 in0.0 mm 0.00 in/hr0.0 mm/hr 0.00 in0.0 mm
05:20 AM 28.4°F-2.0°C 28.2°F-2.1°C 99% 0.4 mph NNW0.6 kmh NNW 2.2 mph3.5 kmh 29.62 in1003.0 mb 0.00 in0.0 mm 0.00 in/hr0.0 mm/hr 0.00 in0.0 mm
05:19 AM 28.4°F-2.0°C 28.2°F-2.1°C 99% 0.3 mph N0.5 kmh N 2.2 mph3.5 kmh 29.62 in1003.0 mb 0.00 in0.0 mm 0.00 in/hr0.0 mm/hr 0.00 in0.0 mm
05:18 AM 28.4°F-2.0°C 28.2°F-2.1°C 99% 0.1 mph N0.2 kmh N 0.7 mph1.1 kmh 29.62 in1003.0 mb 0.00 in0.0 mm 0.00 in/hr0.0 mm/hr 0.00 in0.0 mm
05:17 AM 28.4°F-2.0°C 28.2°F-2.1°C 99% 0.1 mph N0.2 kmh N 0.7 mph1.1 kmh 29.63 in1003.4 mb 0.00 in0.0 mm 0.00 in/hr0.0 mm/hr 0.00 in0.0 mm
05:16 AM 28.4°F-2.0°C 28.2°F-2.1°C 99% 0.1 mph N0.2 kmh N 0.7 mph1.1 kmh 29.63 in1003.4 mb 0.00 in0.0 mm 0.00 in/hr0.0 mm/hr 0.00 in0.0 mm
05:15 AM 28.6°F-1.9°C 28.3°F-2.1°C 99% 0.1 mph N0.2 kmh N 0.7 mph1.1 kmh 29.63 in1003.4 mb 0.00 in0.0 mm 0.00 in/hr0.0 mm/hr 0.00 in0.0 mm
05:14 AM 28.6°F-1.9°C 28.3°F-2.1°C 99% 0.1 mph N0.2 kmh N 0.7 mph1.1 kmh 29.62 in1003.0 mb 0.00 in0.0 mm 0.00 in/hr0.0 mm/hr 0.00 in0.0 mm
05:13 AM 28.6°F-1.9°C 28.3°F-2.1°C 99% 0.1 mph N0.2 kmh N 0.7 mph1.1 kmh 29.62 in1003.0 mb 0.00 in0.0 mm 0.00 in/hr0.0 mm/hr 0.00 in0.0 mm
05:12 AM 28.6°F-1.9°C 28.3°F-2.1°C 99% 0.1 mph N0.2 kmh N 0.7 mph1.1 kmh 29.62 in1003.0 mb 0.00 in0.0 mm 0.00 in/hr0.0 mm/hr 0.00 in0.0 mm
05:11 AM 28.8°F-1.8°C 28.5°F-1.9°C 99% 0.1 mph N0.2 kmh N 0.7 mph1.1 kmh 29.62 in1003.0 mb 0.00 in0.0 mm 0.00 in/hr0.0 mm/hr 0.00 in0.0 mm
05:10 AM 28.8°F-1.8°C 28.5°F-1.9°C 99% 0.1 mph NW0.2 kmh NW 0.7 mph1.1 kmh 29.63 in1003.4 mb 0.00 in0.0 mm 0.00 in/hr0.0 mm/hr 0.00 in0.0 mm
05:09 AM 28.8°F-1.8°C 28.5°F-1.9°C 99% 0.1 mph W0.2 kmh W 0.7 mph1.1 kmh 29.62 in1003.0 mb 0.00 in0.0 mm 0.00 in/hr0.0 mm/hr 0.00 in0.0 mm
05:08 AM 28.8°F-1.8°C 28.5°F-1.9°C 99% 0.1 mph WNW0.2 kmh WNW 0.7 mph1.1 kmh 29.62 in1003.0 mb 0.00 in0.0 mm 0.00 in/hr0.0 mm/hr 0.00 in0.0 mm
05:07 AM 28.9°F-1.7°C 28.7°F-1.8°C 99% 0.2 mph WNW0.3 kmh WNW 0.7 mph1.1 kmh 29.62 in1003.0 mb 0.00 in0.0 mm 0.00 in/hr0.0 mm/hr 0.00 in0.0 mm
05:06 AM 28.9°F-1.7°C 28.7°F-1.8°C 99% 0.2 mph WNW0.3 kmh WNW 0.7 mph1.1 kmh 29.62 in1003.0 mb 0.00 in0.0 mm 0.00 in/hr0.0 mm/hr 0.00 in0.0 mm
05:05 AM 28.9°F-1.7°C 28.7°F-1.8°C 99% 0.3 mph W0.5 kmh W 1.6 mph2.6 kmh 29.62 in1003.0 mb 0.00 in0.0 mm 0.00 in/hr0.0 mm/hr 0.00 in0.0 mm
05:04 AM 28.9°F-1.7°C 28.7°F-1.8°C 99% 0.4 mph W0.6 kmh W 1.6 mph2.6 kmh 29.62 in1003.0 mb 0.00 in0.0 mm 0.00 in/hr0.0 mm/hr 0.00 in0.0 mm
05:03 AM 28.9°F-1.7°C 28.7°F-1.8°C 99% 0.4 mph W0.6 kmh W 1.6 mph2.6 kmh 29.62 in1003.0 mb 0.00 in0.0 mm 0.00 in/hr0.0 mm/hr 0.00 in0.0 mm
05:02 AM 28.9°F-1.7°C 28.7°F-1.8°C 99% 0.5 mph WNW0.8 kmh WNW 1.6 mph2.6 kmh 29.62 in1003.0 mb 0.00 in0.0 mm 0.00 in/hr0.0 mm/hr 0.00 in0.0 mm
05:01 AM 28.9°F-1.7°C 28.7°F-1.8°C 99% 0.6 mph NW1.0 kmh NW 1.6 mph2.6 kmh 29.62 in1003.0 mb 0.00 in0.0 mm 0.00 in/hr0.0 mm/hr 0.00 in0.0 mm
05:00 AM 28.9°F-1.7°C 28.7°F-1.8°C 99% 0.7 mph NE1.1 kmh NE 2.2 mph3.5 kmh 29.62 in1003.0 mb 0.00 in0.0 mm 0.00 in/hr0.0 mm/hr 0.00 in0.0 mm
04:59 AM 28.9°F-1.7°C 28.7°F-1.8°C 99% 0.9 mph E1.4 kmh E 3.1 mph5.0 kmh 29.62 in1003.0 mb 0.00 in0.0 mm 0.00 in/hr0.0 mm/hr 0.00 in0.0 mm
04:58 AM 28.9°F-1.7°C 28.7°F-1.8°C 99% 1.1 mph E1.8 kmh E 3.1 mph5.0 kmh 29.62 in1003.0 mb 0.00 in0.0 mm 0.00 in/hr0.0 mm/hr 0.00 in0.0 mm
04:57 AM 29.1°F-1.6°C 28.9°F-1.7°C 99% 1.2 mph E1.9 kmh E 3.1 mph5.0 kmh 29.62 in1003.0 mb 0.00 in0.0 mm 0.00 in/hr0.0 mm/hr 0.00 in0.0 mm
04:56 AM 29.1°F-1.6°C 28.9°F-1.7°C 99% 1.4 mph ENE2.3 kmh ENE 3.1 mph5.0 kmh 29.62 in1003.0 mb 0.00 in0.0 mm 0.00 in/hr0.0 mm/hr 0.00 in0.0 mm
04:55 AM 28.9°F-1.7°C 28.7°F-1.8°C 99% 1.4 mph ENE2.3 kmh ENE 3.1 mph5.0 kmh 29.62 in1003.0 mb 0.00 in0.0 mm 0.00 in/hr0.0 mm/hr 0.00 in0.0 mm
04:54 AM 28.9°F-1.7°C 28.7°F-1.8°C 99% 1.4 mph ENE2.3 kmh ENE 3.1 mph5.0 kmh 29.62 in1003.0 mb 0.00 in0.0 mm 0.00 in/hr0.0 mm/hr 0.00 in0.0 mm
04:53 AM 28.9°F-1.7°C 28.7°F-1.8°C 99% 1.5 mph NE2.4 kmh NE 3.1 mph5.0 kmh 29.62 in1003.0 mb 0.00 in0.0 mm 0.00 in/hr0.0 mm/hr 0.00 in0.0 mm
04:52 AM 28.9°F-1.7°C 28.7°F-1.8°C 99% 1.6 mph NE2.6 kmh NE 3.1 mph5.0 kmh 29.62 in1003.0 mb 0.00 in0.0 mm 0.00 in/hr0.0 mm/hr 0.00 in0.0 mm
04:51 AM 28.9°F-1.7°C 28.7°F-1.8°C 99% 1.8 mph N2.9 kmh N 3.1 mph5.0 kmh 29.62 in1003.0 mb 0.00 in0.0 mm 0.00 in/hr0.0 mm/hr 0.00 in0.0 mm
04:50 AM 28.9°F-1.7°C 28.7°F-1.8°C 99% 1.9 mph N3.1 kmh N 3.1 mph5.0 kmh 29.62 in1003.0 mb 0.00 in0.0 mm 0.00 in/hr0.0 mm/hr 0.00 in0.0 mm
04:49 AM 28.9°F-1.7°C 28.7°F-1.8°C 99% 1.8 mph NNW2.9 kmh NNW 3.1 mph5.0 kmh 29.62 in1003.0 mb 0.00 in0.0 mm 0.00 in/hr0.0 mm/hr 0.00 in0.0 mm
04:48 AM 28.9°F-1.7°C 28.7°F-1.8°C 99% 1.7 mph NNW2.7 kmh NNW 3.1 mph5.0 kmh 29.62 in1003.0 mb 0.00 in0.0 mm 0.00 in/hr0.0 mm/hr 0.00 in0.0 mm
04:47 AM 28.9°F-1.7°C 28.7°F-1.8°C 99% 1.7 mph NW2.7 kmh NW 3.1 mph5.0 kmh 29.62 in1003.0 mb 0.00 in0.0 mm 0.00 in/hr0.0 mm/hr 0.00 in0.0 mm
04:46 AM 28.9°F-1.7°C 28.7°F-1.8°C 99% 1.8 mph NW2.9 kmh NW 3.1 mph5.0 kmh 29.62 in1003.0 mb 0.00 in0.0 mm 0.00 in/hr0.0 mm/hr 0.00 in0.0 mm
04:45 AM 28.8°F-1.8°C 28.5°F-1.9°C 99% 1.9 mph NW3.1 kmh NW 3.1 mph5.0 kmh 29.62 in1003.0 mb 0.00 in0.0 mm 0.00 in/hr0.0 mm/hr 0.00 in0.0 mm
04:44 AM 28.8°F-1.8°C 28.5°F-1.9°C 99% 1.9 mph NW3.1 kmh NW 3.1 mph5.0 kmh 29.61 in1002.7 mb 0.00 in0.0 mm 0.00 in/hr0.0 mm/hr 0.00 in0.0 mm
04:43 AM 28.8°F-1.8°C 28.5°F-1.9°C 99% 1.9 mph NW3.1 kmh NW 3.1 mph5.0 kmh 29.61 in1002.7 mb 0.00 in0.0 mm 0.00 in/hr0.0 mm/hr 0.00 in0.0 mm
04:42 AM 28.8°F-1.8°C 28.5°F-1.9°C 99% 1.7 mph NW2.7 kmh NW 3.1 mph5.0 kmh 29.61 in1002.7 mb 0.00 in0.0 mm 0.00 in/hr0.0 mm/hr 0.00 in0.0 mm
04:41 AM 28.8°F-1.8°C 28.5°F-1.9°C 99% 1.5 mph NNW2.4 kmh NNW 3.1 mph5.0 kmh 29.61 in1002.7 mb 0.00 in0.0 mm 0.00 in/hr0.0 mm/hr 0.00 in0.0 mm
04:40 AM 28.8°F-1.8°C 28.5°F-1.9°C 99% 1.4 mph NNW2.3 kmh NNW 3.1 mph5.0 kmh 29.61 in1002.7 mb 0.00 in0.0 mm 0.00 in/hr0.0 mm/hr 0.00 in0.0 mm
04:39 AM 28.8°F-1.8°C 28.5°F-1.9°C 99% 1.3 mph N2.1 kmh N 3.1 mph5.0 kmh 29.61 in1002.7 mb 0.00 in0.0 mm 0.00 in/hr0.0 mm/hr 0.00 in0.0 mm
04:38 AM 28.8°F-1.8°C 28.5°F-1.9°C 99% 1.2 mph N1.9 kmh N 3.1 mph5.0 kmh 29.61 in1002.7 mb 0.00 in0.0 mm 0.00 in/hr0.0 mm/hr 0.00 in0.0 mm
04:37 AM 28.8°F-1.8°C 28.5°F-1.9°C 99% 1.1 mph NNE1.8 kmh NNE 3.1 mph5.0 kmh 29.61 in1002.7 mb 0.00 in0.0 mm 0.00 in/hr0.0 mm/hr 0.00 in0.0 mm
04:36 AM 28.8°F-1.8°C 28.5°F-1.9°C 99% 0.9 mph ENE1.4 kmh ENE 3.1 mph5.0 kmh 29.61 in1002.7 mb 0.00 in0.0 mm 0.00 in/hr0.0 mm/hr 0.00 in0.0 mm
04:35 AM 28.8°F-1.8°C 28.5°F-1.9°C 99% 0.7 mph E1.1 kmh E 2.2 mph3.5 kmh 29.61 in1002.7 mb 0.00 in0.0 mm 0.00 in/hr0.0 mm/hr 0.00 in0.0 mm
04:34 AM 28.8°F-1.8°C 28.5°F-1.9°C 99% 0.9 mph SE1.4 kmh SE 2.2 mph3.5 kmh 29.61 in1002.7 mb 0.00 in0.0 mm 0.00 in/hr0.0 mm/hr 0.00 in0.0 mm
04:33 AM 28.8°F-1.8°C 28.5°F-1.9°C 99% 1.0 mph S1.6 kmh S 2.2 mph3.5 kmh 29.61 in1002.7 mb 0.00 in0.0 mm 0.00 in/hr0.0 mm/hr 0.00 in0.0 mm
04:32 AM 28.8°F-1.8°C 28.5°F-1.9°C 99% 1.0 mph S1.6 kmh S 2.2 mph3.5 kmh 29.61 in1002.7 mb 0.00 in0.0 mm 0.00 in/hr0.0 mm/hr 0.00 in0.0 mm
04:31 AM 28.8°F-1.8°C 28.5°F-1.9°C 99% 1.1 mph SSW1.8 kmh SSW 2.2 mph3.5 kmh 29.61 in1002.7 mb 0.00 in0.0 mm 0.00 in/hr0.0 mm/hr 0.00 in0.0 mm
04:30 AM 28.8°F-1.8°C 28.5°F-1.9°C 99% 1.0 mph SW1.6 kmh SW 2.2 mph3.5 kmh 29.61 in1002.7 mb 0.00 in0.0 mm 0.00 in/hr0.0 mm/hr 0.00 in0.0 mm
04:29 AM 28.8°F-1.8°C 28.5°F-1.9°C 99% 1.1 mph SW1.8 kmh SW 2.2 mph3.5 kmh 29.61 in1002.7 mb 0.00 in0.0 mm 0.00 in/hr0.0 mm/hr 0.00 in0.0 mm
04:28 AM 28.8°F-1.8°C 28.5°F-1.9°C 99% 1.2 mph WSW1.9 kmh WSW 2.2 mph3.5 kmh 29.61 in1002.7 mb 0.00 in0.0 mm 0.00 in/hr0.0 mm/hr 0.00 in0.0 mm
04:27 AM 28.8°F-1.8°C 28.5°F-1.9°C 99% 1.3 mph WSW2.1 kmh WSW 2.2 mph3.5 kmh 29.62 in1003.0 mb 0.00 in0.0 mm 0.00 in/hr0.0 mm/hr 0.00 in0.0 mm
04:26 AM 28.8°F-1.8°C 28.5°F-1.9°C 99% 1.4 mph WSW2.3 kmh WSW 2.2 mph3.5 kmh 29.61 in1002.7 mb 0.00 in0.0 mm 0.00 in/hr0.0 mm/hr 0.00 in0.0 mm
04:25 AM 28.8°F-1.8°C 28.5°F-1.9°C 99% 1.4 mph WSW2.3 kmh WSW 2.2 mph3.5 kmh 29.61 in1002.7 mb 0.00 in0.0 mm 0.00 in/hr0.0 mm/hr 0.00 in0.0 mm
04:24 AM 28.8°F-1.8°C 28.5°F-1.9°C 99% 1.2 mph WSW1.9 kmh WSW 2.2 mph3.5 kmh 29.61 in1002.7 mb 0.00 in0.0 mm 0.00 in/hr0.0 mm/hr 0.00 in0.0 mm
04:23 AM 28.8°F-1.8°C 28.5°F-1.9°C 99% 1.0 mph WSW1.6 kmh WSW 2.2 mph3.5 kmh 29.61 in1002.7 mb 0.00 in0.0 mm 0.00 in/hr0.0 mm/hr 0.00 in0.0 mm
04:22 AM 28.8°F-1.8°C 28.5°F-1.9°C 99% 0.9 mph WSW1.4 kmh WSW 2.2 mph3.5 kmh 29.61 in1002.7 mb 0.00 in0.0 mm 0.00 in/hr0.0 mm/hr 0.00 in0.0 mm
04:21 AM 28.8°F-1.8°C 28.5°F-1.9°C 99% 0.8 mph WSW1.3 kmh WSW 2.2 mph3.5 kmh 29.61 in1002.7 mb 0.00 in0.0 mm 0.00 in/hr0.0 mm/hr 0.00 in0.0 mm
04:20 AM 28.8°F-1.8°C 28.5°F-1.9°C 99% 0.7 mph WSW1.1 kmh WSW 2.2 mph3.5 kmh 29.61 in1002.7 mb 0.00 in0.0 mm 0.00 in/hr0.0 mm/hr 0.00 in0.0 mm
04:19 AM 28.8°F-1.8°C 28.5°F-1.9°C 99% 0.6 mph SW1.0 kmh SW 2.2 mph3.5 kmh 29.61 in1002.7 mb 0.00 in0.0 mm 0.00 in/hr0.0 mm/hr 0.00 in0.0 mm
04:18 AM 28.8°F-1.8°C 28.5°F-1.9°C 99% 0.4 mph SW0.6 kmh SW 2.2 mph3.5 kmh 29.61 in1002.7 mb 0.00 in0.0 mm 0.00 in/hr0.0 mm/hr 0.00 in0.0 mm
04:17 AM 28.8°F-1.8°C 28.5°F-1.9°C 99% 0.3 mph SW0.5 kmh SW 2.2 mph3.5 kmh 29.61 in1002.7 mb 0.00 in0.0 mm 0.00 in/hr0.0 mm/hr 0.00 in0.0 mm
04:16 AM 28.8°F-1.8°C 28.5°F-1.9°C 99% 0.1 mph W0.2 kmh W 1.6 mph2.6 kmh 29.61 in1002.7 mb 0.00 in0.0 mm 0.00 in/hr0.0 mm/hr 0.00 in0.0 mm
04:15 AM 28.8°F-1.8°C 28.5°F-1.9°C 99% 0.1 mph N0.2 kmh N 0.7 mph1.1 kmh 29.61 in1002.7 mb 0.00 in0.0 mm 0.00 in/hr0.0 mm/hr 0.00 in0.0 mm
04:14 AM 28.9°F-1.7°C 28.7°F-1.8°C 99% 0.1 mph N0.2 kmh N 0.7 mph1.1 kmh 29.61 in1002.7 mb 0.00 in0.0 mm 0.00 in/hr0.0 mm/hr 0.00 in0.0 mm
04:13 AM 28.9°F-1.7°C 28.7°F-1.8°C 99% 0.1 mph N0.2 kmh N 0.7 mph1.1 kmh 29.61 in1002.7 mb 0.00 in0.0 mm 0.00 in/hr0.0 mm/hr 0.00 in0.0 mm
04:12 AM 28.9°F-1.7°C 28.7°F-1.8°C 99% 0.2 mph N0.3 kmh N 0.7 mph1.1 kmh 29.61 in1002.7 mb 0.00 in0.0 mm 0.00 in/hr0.0 mm/hr 0.00 in0.0 mm
04:11 AM 28.9°F-1.7°C 28.7°F-1.8°C 99% 0.2 mph N0.3 kmh N 0.7 mph1.1 kmh 29.61 in1002.7 mb 0.00 in0.0 mm 0.00 in/hr0.0 mm/hr 0.00 in0.0 mm
04:10 AM 28.9°F-1.7°C 28.7°F-1.8°C 99% 0.3 mph N0.5 kmh N 0.7 mph1.1 kmh 29.61 in1002.7 mb 0.00 in0.0 mm 0.00 in/hr0.0 mm/hr 0.00 in0.0 mm
04:09 AM 28.9°F-1.7°C 28.7°F-1.8°C 99% 0.3 mph N0.5 kmh N 0.7 mph1.1 kmh 29.60 in1002.4 mb 0.00 in0.0 mm 0.00 in/hr0.0 mm/hr 0.00 in0.0 mm
04:08 AM 28.9°F-1.7°C 28.7°F-1.8°C 99% 0.3 mph N0.5 kmh N 0.7 mph1.1 kmh 29.60 in1002.4 mb 0.00 in0.0 mm 0.00 in/hr0.0 mm/hr 0.00 in0.0 mm
04:07 AM 28.9°F-1.7°C 28.7°F-1.8°C 99% 0.3 mph N0.5 kmh N 0.7 mph1.1 kmh 29.60 in1002.4 mb 0.00 in0.0 mm 0.00 in/hr0.0 mm/hr 0.00 in0.0 mm
04:06 AM 28.9°F-1.7°C 28.7°F-1.8°C 99% 0.2 mph N0.3 kmh N 0.7 mph1.1 kmh 29.61 in1002.7 mb 0.00 in0.0 mm 0.00 in/hr0.0 mm/hr 0.00 in0.0 mm
04:05 AM 28.9°F-1.7°C 28.7°F-1.8°C 99% 0.2 mph N0.3 kmh N 0.7 mph1.1 kmh 29.61 in1002.7 mb 0.00 in0.0 mm 0.00 in/hr0.0 mm/hr 0.00 in0.0 mm
04:04 AM 28.9°F-1.7°C 28.7°F-1.8°C 99% 0.2 mph N0.3 kmh N 0.7 mph1.1 kmh 29.60 in1002.4 mb 0.00 in0.0 mm 0.00 in/hr0.0 mm/hr 0.00 in0.0 mm
04:03 AM 28.9°F-1.7°C 28.7°F-1.8°C 99% 0.2 mph N0.3 kmh N 0.7 mph1.1 kmh 29.61 in1002.7 mb 0.00 in0.0 mm 0.00 in/hr0.0 mm/hr 0.00 in0.0 mm
04:02 AM 29.1°F-1.6°C 28.9°F-1.7°C 99% 0.3 mph N0.5 kmh N 1.6 mph2.6 kmh 29.61 in1002.7 mb 0.00 in0.0 mm 0.00 in/hr0.0 mm/hr 0.00 in0.0 mm
04:01 AM 28.9°F-1.7°C 28.7°F-1.8°C 99% 0.4 mph N0.6 kmh N 1.6 mph2.6 kmh 29.61 in1002.7 mb 0.00 in0.0 mm 0.00 in/hr0.0 mm/hr 0.00 in0.0 mm
04:00 AM 28.9°F-1.7°C 28.7°F-1.8°C 99% 0.5 mph N0.8 kmh N 1.6 mph2.6 kmh 29.61 in1002.7 mb 0.00 in0.0 mm 0.00 in/hr0.0 mm/hr 0.00 in0.0 mm
03:59 AM 28.9°F-1.7°C 28.7°F-1.8°C 99% 0.5 mph N0.8 kmh N 1.6 mph2.6 kmh 29.61 in1002.7 mb 0.00 in0.0 mm 0.00 in/hr0.0 mm/hr 0.00 in0.0 mm
03:58 AM 29.1°F-1.6°C 28.9°F-1.7°C 99% 0.6 mph N1.0 kmh N 1.6 mph2.6 kmh 29.61 in1002.7 mb 0.00 in0.0 mm 0.00 in/hr0.0 mm/hr 0.00 in0.0 mm
03:57 AM 29.1°F-1.6°C 28.9°F-1.7°C 99% 0.7 mph N1.1 kmh N 1.6 mph2.6 kmh 29.61 in1002.7 mb 0.00 in0.0 mm 0.00 in/hr0.0 mm/hr 0.00 in0.0 mm
03:56 AM 29.1°F-1.6°C 28.9°F-1.7°C 99% 0.7 mph N1.1 kmh N 1.6 mph2.6 kmh 29.61 in1002.7 mb 0.00 in0.0 mm 0.00 in/hr0.0 mm/hr 0.00 in0.0 mm
03:55 AM 29.1°F-1.6°C 28.9°F-1.7°C 99% 0.7 mph N1.1 kmh N 1.6 mph2.6 kmh 29.61 in1002.7 mb 0.00 in0.0 mm 0.00 in/hr0.0 mm/hr 0.00 in0.0 mm
03:54 AM 29.1°F-1.6°C 28.9°F-1.7°C 99% 0.7 mph N1.1 kmh N 1.6 mph2.6 kmh 29.60 in1002.4 mb 0.00 in0.0 mm 0.00 in/hr0.0 mm/hr 0.00 in0.0 mm
03:53 AM 29.1°F-1.6°C 28.9°F-1.7°C 99% 0.6 mph N1.0 kmh N 1.6 mph2.6 kmh 29.60 in1002.4 mb 0.00 in0.0 mm 0.00 in/hr0.0 mm/hr 0.00 in0.0 mm
03:52 AM 29.3°F-1.5°C 29.1°F-1.6°C 99% 0.5 mph NNW0.8 kmh NNW 1.6 mph2.6 kmh 29.60 in1002.4 mb 0.00 in0.0 mm 0.00 in/hr0.0 mm/hr 0.00 in0.0 mm
03:51 AM 29.3°F-1.5°C 29.1°F-1.6°C 99% 0.4 mph NNW0.6 kmh NNW 1.6 mph2.6 kmh 29.61 in1002.7 mb 0.00 in0.0 mm 0.00 in/hr0.0 mm/hr 0.00 in0.0 mm
03:50 AM 29.3°F-1.5°C 29.1°F-1.6°C 99% 0.2 mph NW0.3 kmh NW 1.6 mph2.6 kmh 29.60 in1002.4 mb 0.00 in0.0 mm 0.00 in/hr0.0 mm/hr 0.00 in0.0 mm
03:49 AM 29.3°F-1.5°C 29.1°F-1.6°C 99% 0.4 mph NNW0.6 kmh NNW 1.6 mph2.6 kmh 29.61 in1002.7 mb 0.00 in0.0 mm 0.00 in/hr0.0 mm/hr 0.00 in0.0 mm
03:48 AM 29.3°F-1.5°C 29.1°F-1.6°C 99% 0.4 mph NNW0.6 kmh NNW 1.6 mph2.6 kmh 29.61 in1002.7 mb 0.00 in0.0 mm 0.00 in/hr0.0 mm/hr 0.00 in0.0 mm
03:47 AM 29.3°F-1.5°C 29.1°F-1.6°C 99% 0.4 mph N0.6 kmh N 1.6 mph2.6 kmh 29.61 in1002.7 mb 0.00 in0.0 mm 0.00 in/hr0.0 mm/hr 0.00 in0.0 mm
03:46 AM 29.3°F-1.5°C 29.1°F-1.6°C 99% 0.4 mph N0.6 kmh N 1.6 mph2.6 kmh 29.60 in1002.4 mb 0.00 in0.0 mm 0.00 in/hr0.0 mm/hr 0.00 in0.0 mm
03:45 AM 29.3°F-1.5°C 29.1°F-1.6°C 99% 0.5 mph N0.8 kmh N 1.6 mph2.6 kmh 29.60 in1002.4 mb 0.00 in0.0 mm 0.00 in/hr0.0 mm/hr 0.00 in0.0 mm
03:44 AM 29.5°F-1.4°C 29.2°F-1.6°C 99% 0.6 mph N1.0 kmh N 1.6 mph2.6 kmh 29.60 in1002.4 mb 0.00 in0.0 mm 0.00 in/hr0.0 mm/hr 0.00 in0.0 mm
03:43 AM 29.5°F-1.4°C 29.2°F-1.6°C 99% 0.6 mph N1.0 kmh N 1.6 mph2.6 kmh 29.60 in1002.4 mb 0.00 in0.0 mm 0.00 in/hr0.0 mm/hr 0.00 in0.0 mm
03:42 AM 29.5°F-1.4°C 29.2°F-1.6°C 99% 0.6 mph N1.0 kmh N 1.6 mph2.6 kmh 29.60 in1002.4 mb 0.00 in0.0 mm 0.00 in/hr0.0 mm/hr 0.00 in0.0 mm
03:41 AM 29.5°F-1.4°C 29.2°F-1.6°C 99% 0.6 mph N1.0 kmh N 1.6 mph2.6 kmh 29.60 in1002.4 mb 0.00 in0.0 mm 0.00 in/hr0.0 mm/hr 0.00 in0.0 mm
03:40 AM 29.5°F-1.4°C 29.2°F-1.6°C 99% 0.5 mph N0.8 kmh N 1.6 mph2.6 kmh 29.60 in1002.4 mb 0.00 in0.0 mm 0.00 in/hr0.0 mm/hr 0.00 in0.0 mm
03:39 AM 29.5°F-1.4°C 29.2°F-1.6°C 99% 0.5 mph N0.8 kmh N 1.6 mph2.6 kmh 29.60 in1002.4 mb 0.00 in0.0 mm 0.00 in/hr0.0 mm/hr 0.00 in0.0 mm
03:38 AM 29.7°F-1.3°C 29.4°F-1.4°C 99% 0.5 mph N0.8 kmh N 1.6 mph2.6 kmh 29.60 in1002.4 mb 0.00 in0.0 mm 0.00 in/hr0.0 mm/hr 0.00 in0.0 mm
03:37 AM 29.7°F-1.3°C 29.4°F-1.4°C 99% 0.4 mph N0.6 kmh N 0.7 mph1.1 kmh 29.60 in1002.4 mb 0.00 in0.0 mm 0.00 in/hr0.0 mm/hr 0.00 in0.0 mm
03:36 AM 29.7°F-1.3°C 29.4°F-1.4°C 99% 0.3 mph N0.5 kmh N 0.7 mph1.1 kmh 29.60 in1002.4 mb 0.00 in0.0 mm 0.00 in/hr0.0 mm/hr 0.00 in0.0 mm
03:35 AM 29.7°F-1.3°C 29.4°F-1.4°C 99% 0.3 mph N0.5 kmh N 0.7 mph1.1 kmh 29.60 in1002.4 mb 0.00 in0.0 mm 0.00 in/hr0.0 mm/hr 0.00 in0.0 mm
03:34 AM 29.7°F-1.3°C 29.4°F-1.4°C 99% 0.3 mph N0.5 kmh N 0.7 mph1.1 kmh 29.60 in1002.4 mb 0.00 in0.0 mm 0.00 in/hr0.0 mm/hr 0.00 in0.0 mm
03:33 AM 29.8°F-1.2°C 29.6°F-1.3°C 99% 0.3 mph N0.5 kmh N 0.7 mph1.1 kmh 29.60 in1002.4 mb 0.00 in0.0 mm 0.00 in/hr0.0 mm/hr 0.00 in0.0 mm
03:32 AM 29.8°F-1.2°C 29.6°F-1.3°C 99% 0.3 mph N0.5 kmh N 0.7 mph1.1 kmh 29.60 in1002.4 mb 0.00 in0.0 mm 0.00 in/hr0.0 mm/hr 0.00 in0.0 mm
03:31 AM 29.8°F-1.2°C 29.6°F-1.3°C 99% 0.3 mph N0.5 kmh N 0.7 mph1.1 kmh 29.60 in1002.4 mb 0.00 in0.0 mm 0.00 in/hr0.0 mm/hr 0.00 in0.0 mm
03:30 AM 29.8°F-1.2°C 29.6°F-1.3°C 99% 0.3 mph N0.5 kmh N 0.7 mph1.1 kmh 29.60 in1002.4 mb 0.00 in0.0 mm 0.00 in/hr0.0 mm/hr 0.00 in0.0 mm
03:29 AM 29.8°F-1.2°C 29.6°F-1.3°C 99% 0.3 mph N0.5 kmh N 0.7 mph1.1 kmh 29.60 in1002.4 mb 0.00 in0.0 mm 0.00 in/hr0.0 mm/hr 0.00 in0.0 mm
03:28 AM 29.8°F-1.2°C 29.6°F-1.3°C 99% 0.2 mph N0.3 kmh N 0.7 mph1.1 kmh 29.60 in1002.4 mb 0.00 in0.0 mm 0.00 in/hr0.0 mm/hr 0.00 in0.0 mm
03:27 AM 30.0°F-1.1°C 29.8°F-1.2°C 99% 0.2 mph N0.3 kmh N 0.7 mph1.1 kmh 29.60 in1002.4 mb 0.00 in0.0 mm 0.00 in/hr0.0 mm/hr 0.00 in0.0 mm
03:26 AM 30.0°F-1.1°C 29.8°F-1.2°C 99% 0.2 mph N0.3 kmh N 0.7 mph1.1 kmh 29.60 in1002.4 mb 0.00 in0.0 mm 0.00 in/hr0.0 mm/hr 0.00 in0.0 mm
03:25 AM 30.0°F-1.1°C 29.8°F-1.2°C 99% 0.2 mph NNW0.3 kmh NNW 0.7 mph1.1 kmh 29.60 in1002.4 mb 0.00 in0.0 mm 0.00 in/hr0.0 mm/hr 0.00 in0.0 mm
03:24 AM 30.0°F-1.1°C 29.8°F-1.2°C 99% 0.2 mph NW0.3 kmh NW 0.7 mph1.1 kmh 29.60 in1002.4 mb 0.00 in0.0 mm 0.00 in/hr0.0 mm/hr 0.00 in0.0 mm
03:23 AM 30.2°F-1.0°C 30.0°F-1.1°C 99% 0.3 mph NW0.5 kmh NW 1.6 mph2.6 kmh 29.60 in1002.4 mb 0.00 in0.0 mm 0.00 in/hr0.0 mm/hr 0.00 in0.0 mm
03:22 AM 30.2°F-1.0°C 30.0°F-1.1°C 99% 0.5 mph NW0.8 kmh NW 1.6 mph2.6 kmh 29.60 in1002.4 mb 0.00 in0.0 mm 0.00 in/hr0.0 mm/hr 0.00 in0.0 mm
03:21 AM 30.2°F-1.0°C 30.0°F-1.1°C 99% 0.6 mph NNW1.0 kmh NNW 1.6 mph2.6 kmh 29.60 in1002.4 mb 0.00 in0.0 mm 0.00 in/hr0.0 mm/hr 0.00 in0.0 mm
03:20 AM 30.2°F-1.0°C 30.0°F-1.1°C 99% 0.8 mph NNW1.3 kmh NNW 2.2 mph3.5 kmh 29.60 in1002.4 mb 0.00 in0.0 mm 0.00 in/hr0.0 mm/hr 0.00 in0.0 mm
03:19 AM 30.2°F-1.0°C 30.0°F-1.1°C 99% 0.8 mph NNW1.3 kmh NNW 2.2 mph3.5 kmh 29.60 in1002.4 mb 0.00 in0.0 mm 0.00 in/hr0.0 mm/hr 0.00 in0.0 mm
03:18 AM 30.4°F-0.9°C 30.1°F-1.1°C 99% 1.0 mph N1.6 kmh N 2.2 mph3.5 kmh 29.60 in1002.4 mb 0.00 in0.0 mm 0.00 in/hr0.0 mm/hr 0.00 in0.0 mm
03:17 AM 30.4°F-0.9°C 30.1°F-1.1°C 99% 1.0 mph N1.6 kmh N 2.2 mph3.5 kmh 29.60 in1002.4 mb 0.00 in0.0 mm 0.00 in/hr0.0 mm/hr 0.00 in0.0 mm
03:16 AM 30.4°F-0.9°C 30.1°F-1.1°C 99% 1.1 mph N1.8 kmh N 2.2 mph3.5 kmh 29.60 in1002.4 mb 0.00 in0.0 mm 0.00 in/hr0.0 mm/hr 0.00 in0.0 mm
03:15 AM 30.4°F-0.9°C 30.1°F-1.1°C 99% 1.1 mph N1.8 kmh N 2.2 mph3.5 kmh 29.60 in1002.4 mb 0.00 in0.0 mm 0.00 in/hr0.0 mm/hr 0.00 in0.0 mm
03:14 AM 30.4°F-0.9°C 30.1°F-1.1°C 99% 1.1 mph N1.8 kmh N 2.2 mph3.5 kmh 29.60 in1002.4 mb 0.00 in0.0 mm 0.00 in/hr0.0 mm/hr 0.00 in0.0 mm
03:13 AM 30.4°F-0.9°C 30.1°F-1.1°C 99% 1.1 mph N1.8 kmh N 2.2 mph3.5 kmh 29.60 in1002.4 mb 0.00 in0.0 mm 0.00 in/hr0.0 mm/hr 0.00 in0.0 mm
03:12 AM 30.6°F-0.8°C 30.3°F-0.9°C 99% 1.1 mph N1.8 kmh N 2.2 mph3.5 kmh 29.60 in1002.4 mb 0.00 in0.0 mm 0.00 in/hr0.0 mm/hr 0.00 in0.0 mm
03:11 AM 30.6°F-0.8°C 30.3°F-0.9°C 99% 1.1 mph NNW1.8 kmh NNW 2.2 mph3.5 kmh 29.60 in1002.4 mb 0.00 in0.0 mm 0.00 in/hr0.0 mm/hr 0.00 in0.0 mm
03:10 AM 30.6°F-0.8°C 30.3°F-0.9°C 99% 1.0 mph NNW1.6 kmh NNW 1.6 mph2.6 kmh 29.59 in1002.0 mb 0.00 in0.0 mm 0.00 in/hr0.0 mm/hr 0.00 in0.0 mm
03:09 AM 30.6°F-0.8°C 30.3°F-0.9°C 99% 1.1 mph NNW1.8 kmh NNW 1.6 mph2.6 kmh 29.59 in1002.0 mb 0.00 in0.0 mm 0.00 in/hr0.0 mm/hr 0.00 in0.0 mm
03:08 AM 30.6°F-0.8°C 30.3°F-0.9°C 99% 1.1 mph NW1.8 kmh NW 1.6 mph2.6 kmh 29.60 in1002.4 mb 0.00 in0.0 mm 0.00 in/hr0.0 mm/hr 0.00 in0.0 mm
03:07 AM 30.6°F-0.8°C 30.3°F-0.9°C 99% 1.1 mph NW1.8 kmh NW 1.6 mph2.6 kmh 29.60 in1002.4 mb 0.00 in0.0 mm 0.00 in/hr0.0 mm/hr 0.00 in0.0 mm
03:06 AM 30.6°F-0.8°C 30.3°F-0.9°C 99% 1.1 mph NW1.8 kmh NW 1.6 mph2.6 kmh 29.60 in1002.4 mb 0.00 in0.0 mm 0.00 in/hr0.0 mm/hr 0.00 in0.0 mm
03:05 AM 30.6°F-0.8°C 30.3°F-0.9°C 99% 1.1 mph NW1.8 kmh NW 1.6 mph2.6 kmh 29.60 in1002.4 mb 0.00 in0.0 mm 0.00 in/hr0.0 mm/hr 0.00 in0.0 mm
03:04 AM 30.6°F-0.8°C 30.3°F-0.9°C 99% 1.0 mph NW1.6 kmh NW 1.6 mph2.6 kmh 29.60 in1002.4 mb 0.00 in0.0 mm 0.00 in/hr0.0 mm/hr 0.00 in0.0 mm
03:03 AM 30.7°F-0.7°C 30.5°F-0.8°C 99% 1.0 mph WNW1.6 kmh WNW 1.6 mph2.6 kmh 29.60 in1002.4 mb 0.00 in0.0 mm 0.00 in/hr0.0 mm/hr 0.00 in0.0 mm
03:02 AM 30.7°F-0.7°C 30.5°F-0.8°C 99% 0.9 mph WNW1.4 kmh WNW 1.6 mph2.6 kmh 29.59 in1002.0 mb 0.00 in0.0 mm 0.00 in/hr0.0 mm/hr 0.00 in0.0 mm
03:01 AM 30.7°F-0.7°C 30.5°F-0.8°C 99% 0.8 mph WNW1.3 kmh WNW 1.6 mph2.6 kmh 29.59 in1002.0 mb 0.00 in0.0 mm 0.00 in/hr0.0 mm/hr 0.00 in0.0 mm
03:00 AM 30.7°F-0.7°C 30.5°F-0.8°C 99% 0.6 mph W1.0 kmh W 1.6 mph2.6 kmh 29.59 in1002.0 mb 0.00 in0.0 mm 0.00 in/hr0.0 mm/hr 0.00 in0.0 mm
02:59 AM 30.7°F-0.7°C 30.5°F-0.8°C 99% 0.5 mph W0.8 kmh W 1.6 mph2.6 kmh 29.59 in1002.0 mb 0.00 in0.0 mm 0.00 in/hr0.0 mm/hr 0.00 in0.0 mm
02:58 AM 30.9°F-0.6°C 30.7°F-0.7°C 99% 0.3 mph W0.5 kmh W 0.7 mph1.1 kmh 29.59 in1002.0 mb 0.00 in0.0 mm 0.00 in/hr0.0 mm/hr 0.00 in0.0 mm
02:57 AM 30.9°F-0.6°C 30.7°F-0.7°C 99% 0.3 mph W0.5 kmh W 0.7 mph1.1 kmh 29.59 in1002.0 mb 0.00 in0.0 mm 0.00 in/hr0.0 mm/hr 0.00 in0.0 mm
02:56 AM 30.9°F-0.6°C 30.7°F-0.7°C 99% 0.2 mph W0.3 kmh W 0.7 mph1.1 kmh 29.59 in1002.0 mb 0.00 in0.0 mm 0.00 in/hr0.0 mm/hr 0.00 in0.0 mm
02:55 AM 30.9°F-0.6°C 30.7°F-0.7°C 99% 0.3 mph W0.5 kmh W 1.6 mph2.6 kmh 29.59 in1002.0 mb 0.00 in0.0 mm 0.00 in/hr0.0 mm/hr 0.00 in0.0 mm
02:54 AM 30.9°F-0.6°C 30.7°F-0.7°C 99% 0.4 mph W0.6 kmh W 1.6 mph2.6 kmh 29.59 in1002.0 mb 0.00 in0.0 mm 0.00 in/hr0.0 mm/hr 0.00 in0.0 mm
02:53 AM 31.1°F-0.5°C 30.9°F-0.6°C 99% 0.5 mph W0.8 kmh W 1.6 mph2.6 kmh 29.59 in1002.0 mb 0.00 in0.0 mm 0.00 in/hr0.0 mm/hr 0.00 in0.0 mm
02:52 AM 31.1°F-0.5°C 30.9°F-0.6°C 99% 0.5 mph W0.8 kmh W 1.6 mph2.6 kmh 29.59 in1002.0 mb 0.00 in0.0 mm 0.00 in/hr0.0 mm/hr 0.00 in0.0 mm
02:51 AM 31.1°F-0.5°C 30.9°F-0.6°C 99% 0.5 mph W0.8 kmh W 1.6 mph2.6 kmh 29.59 in1002.0 mb 0.00 in0.0 mm 0.00 in/hr0.0 mm/hr 0.00 in0.0 mm
02:50 AM 31.1°F-0.5°C 30.9°F-0.6°C 99% 0.7 mph W1.1 kmh W 1.6 mph2.6 kmh 29.60 in1002.4 mb 0.00 in0.0 mm 0.00 in/hr0.0 mm/hr 0.00 in0.0 mm
02:49 AM 31.1°F-0.5°C 30.9°F-0.6°C 99% 0.8 mph W1.3 kmh W 1.6 mph2.6 kmh 29.60 in1002.4 mb 0.00 in0.0 mm 0.00 in/hr0.0 mm/hr 0.00 in0.0 mm
02:48 AM 31.1°F-0.5°C 30.9°F-0.6°C 99% 0.8 mph W1.3 kmh W 1.6 mph2.6 kmh 29.60 in1002.4 mb 0.00 in0.0 mm 0.00 in/hr0.0 mm/hr 0.00 in0.0 mm
02:47 AM 31.3°F-0.4°C 31.0°F-0.6°C 99% 0.9 mph W1.4 kmh W 1.6 mph2.6 kmh 29.59 in1002.0 mb 0.00 in0.0 mm 0.00 in/hr0.0 mm/hr 0.00 in0.0 mm
02:46 AM 31.3°F-0.4°C 31.0°F-0.6°C 99% 0.9 mph W1.4 kmh W 1.6 mph2.6 kmh 29.59 in1002.0 mb 0.00 in0.0 mm 0.00 in/hr0.0 mm/hr 0.00 in0.0 mm
02:45 AM 31.3°F-0.4°C 31.0°F-0.6°C 99% 0.7 mph W1.1 kmh W 1.6 mph2.6 kmh 29.59 in1002.0 mb 0.00 in0.0 mm 0.00 in/hr0.0 mm/hr 0.00 in0.0 mm
02:44 AM 31.3°F-0.4°C 31.0°F-0.6°C 99% 0.6 mph W1.0 kmh W 1.6 mph2.6 kmh 29.59 in1002.0 mb 0.00 in0.0 mm 0.00 in/hr0.0 mm/hr 0.00 in0.0 mm
02:43 AM 31.3°F-0.4°C 31.0°F-0.6°C 99% 0.6 mph W1.0 kmh W 1.6 mph2.6 kmh 29.59 in1002.0 mb 0.00 in0.0 mm 0.00 in/hr0.0 mm/hr 0.00 in0.0 mm
02:42 AM 31.3°F-0.4°C 31.0°F-0.6°C 99% 0.6 mph W1.0 kmh W 1.6 mph2.6 kmh 29.59 in1002.0 mb 0.00 in0.0 mm 0.00 in/hr0.0 mm/hr 0.00 in0.0 mm
02:41 AM 31.3°F-0.4°C 31.0°F-0.6°C 99% 0.6 mph WNW1.0 kmh WNW 1.6 mph2.6 kmh 29.59 in1002.0 mb 0.00 in0.0 mm 0.00 in/hr0.0 mm/hr 0.00 in0.0 mm
02:40 AM 31.3°F-0.4°C 31.0°F-0.6°C 99% 0.5 mph WNW0.8 kmh WNW 1.6 mph2.6 kmh 29.59 in1002.0 mb 0.00 in0.0 mm 0.00 in/hr0.0 mm/hr 0.00 in0.0 mm
02:39 AM 31.5°F-0.3°C 31.2°F-0.4°C 99% 0.4 mph NW0.6 kmh NW 1.6 mph2.6 kmh 29.59 in1002.0 mb 0.00 in0.0 mm 0.00 in/hr0.0 mm/hr 0.00 in0.0 mm
02:38 AM 31.5°F-0.3°C 31.2°F-0.4°C 99% 0.3 mph NW0.5 kmh NW 1.6 mph2.6 kmh 29.59 in1002.0 mb 0.00 in0.0 mm 0.00 in/hr0.0 mm/hr 0.00 in0.0 mm
02:37 AM 31.5°F-0.3°C 31.2°F-0.4°C 99% 0.3 mph NW0.5 kmh NW 1.6 mph2.6 kmh 29.59 in1002.0 mb 0.00 in0.0 mm 0.00 in/hr0.0 mm/hr 0.00 in0.0 mm
02:36 AM 31.5°F-0.3°C 31.2°F-0.4°C 99% 0.3 mph NW0.5 kmh NW 1.6 mph2.6 kmh 29.59 in1002.0 mb 0.00 in0.0 mm 0.00 in/hr0.0 mm/hr 0.00 in0.0 mm
02:35 AM 31.5°F-0.3°C 31.2°F-0.4°C 99% 0.4 mph NW0.6 kmh NW 1.6 mph2.6 kmh 29.59 in1002.0 mb 0.00 in0.0 mm 0.00 in/hr0.0 mm/hr 0.00 in0.0 mm
02:34 AM 31.6°F-0.2°C 31.4°F-0.3°C 99% 0.5 mph NW0.8 kmh NW 1.6 mph2.6 kmh 29.59 in1002.0 mb 0.00 in0.0 mm 0.00 in/hr0.0 mm/hr 0.00 in0.0 mm
02:33 AM 31.6°F-0.2°C 31.4°F-0.3°C 99% 0.6 mph NW1.0 kmh NW 1.6 mph2.6 kmh 29.59 in1002.0 mb 0.00 in0.0 mm 0.00 in/hr0.0 mm/hr 0.00 in0.0 mm
02:32 AM 31.6°F-0.2°C 31.4°F-0.3°C 99% 0.6 mph NW1.0 kmh NW 1.6 mph2.6 kmh 29.59 in1002.0 mb 0.00 in0.0 mm 0.00 in/hr0.0 mm/hr 0.00 in0.0 mm
02:31 AM 31.6°F-0.2°C 31.4°F-0.3°C 99% 0.7 mph NW1.1 kmh NW 1.6 mph2.6 kmh 29.59 in1002.0 mb 0.00 in0.0 mm 0.00 in/hr0.0 mm/hr 0.00 in0.0 mm
02:30 AM 31.6°F-0.2°C 31.4°F-0.3°C 99% 0.8 mph NW1.3 kmh NW 1.6 mph2.6 kmh 29.59 in1002.0 mb 0.00 in0.0 mm 0.00 in/hr0.0 mm/hr 0.00 in0.0 mm
02:29 AM 31.8°F-0.1°C 31.6°F-0.2°C 99% 0.8 mph NW1.3 kmh NW 1.6 mph2.6 kmh 29.59 in1002.0 mb 0.00 in0.0 mm 0.00 in/hr0.0 mm/hr 0.00 in0.0 mm
02:28 AM 31.8°F-0.1°C 31.6°F-0.2°C 99% 0.9 mph NW1.4 kmh NW 1.6 mph2.6 kmh 29.60 in1002.4 mb 0.00 in0.0 mm 0.00 in/hr0.0 mm/hr 0.00 in0.0 mm
02:27 AM 31.8°F-0.1°C 31.6°F-0.2°C 99% 1.0 mph NW1.6 kmh NW 1.6 mph2.6 kmh 29.59 in1002.0 mb 0.00 in0.0 mm 0.00 in/hr0.0 mm/hr 0.00 in0.0 mm
02:26 AM 31.8°F-0.1°C 31.6°F-0.2°C 99% 1.0 mph NW1.6 kmh NW 1.6 mph2.6 kmh 29.60 in1002.4 mb 0.00 in0.0 mm 0.00 in/hr0.0 mm/hr 0.00 in0.0 mm
02:25 AM 31.8°F-0.1°C 31.6°F-0.2°C 99% 1.0 mph NW1.6 kmh NW 1.6 mph2.6 kmh 29.60 in1002.4 mb 0.00 in0.0 mm 0.00 in/hr0.0 mm/hr 0.00 in0.0 mm
02:24 AM 32.0°F0.0°C 31.8°F-0.1°C 99% 1.1 mph NW1.8 kmh NW 1.6 mph2.6 kmh 29.59 in1002.0 mb 0.00 in0.0 mm 0.00 in/hr0.0 mm/hr 0.00 in0.0 mm
02:23 AM 32.0°F0.0°C 31.8°F-0.1°C 99% 1.1 mph NW1.8 kmh NW 1.6 mph2.6 kmh 29.60 in1002.4 mb 0.00 in0.0 mm 0.00 in/hr0.0 mm/hr 0.00 in0.0 mm
02:22 AM 32.0°F0.0°C 31.8°F-0.1°C 99% 1.2 mph NW1.9 kmh NW 2.2 mph3.5 kmh 29.59 in1002.0 mb 0.00 in0.0 mm 0.00 in/hr0.0 mm/hr 0.00 in0.0 mm
02:21 AM 32.0°F0.0°C 31.8°F-0.1°C 99% 1.2 mph NW1.9 kmh NW 2.2 mph3.5 kmh 29.59 in1002.0 mb 0.00 in0.0 mm 0.00 in/hr0.0 mm/hr 0.00 in0.0 mm
02:20 AM 32.0°F0.0°C 31.8°F-0.1°C 99% 1.3 mph NW2.1 kmh NW 2.2 mph3.5 kmh 29.59 in1002.0 mb 0.00 in0.0 mm 0.00 in/hr0.0 mm/hr 0.00 in0.0 mm
02:19 AM 32.2°F0.1°C 31.9°F-0.1°C 99% 1.5 mph NW2.4 kmh NW 3.1 mph5.0 kmh 29.59 in1002.0 mb 0.00 in0.0 mm 0.00 in/hr0.0 mm/hr 0.00 in0.0 mm
02:18 AM 32.2°F0.1°C 31.9°F-0.1°C 99% 1.7 mph NW2.7 kmh NW 3.1 mph5.0 kmh 29.59 in1002.0 mb 0.00 in0.0 mm 0.00 in/hr0.0 mm/hr 0.00 in0.0 mm
02:17 AM 32.2°F0.1°C 31.9°F-0.1°C 99% 1.9 mph NW3.1 kmh NW 3.1 mph5.0 kmh 29.59 in1002.0 mb 0.00 in0.0 mm 0.00 in/hr0.0 mm/hr 0.00 in0.0 mm
02:16 AM 32.2°F0.1°C 31.9°F-0.1°C 99% 2.1 mph NW3.4 kmh NW 3.1 mph5.0 kmh 29.59 in1002.0 mb 0.00 in0.0 mm 0.00 in/hr0.0 mm/hr 0.00 in0.0 mm
02:15 AM 32.2°F0.1°C 31.9°F-0.1°C 99% 2.2 mph NW3.5 kmh NW 3.1 mph5.0 kmh 29.59 in1002.0 mb 0.00 in0.0 mm 0.00 in/hr0.0 mm/hr 0.00 in0.0 mm
02:14 AM 32.2°F0.1°C 31.9°F-0.1°C 99% 2.2 mph NW3.5 kmh NW 3.1 mph5.0 kmh 29.59 in1002.0 mb 0.00 in0.0 mm 0.00 in/hr0.0 mm/hr 0.00 in0.0 mm
02:13 AM 32.2°F0.1°C 31.9°F-0.1°C 99% 2.3 mph NW3.7 kmh NW 3.1 mph5.0 kmh 29.59 in1002.0 mb 0.00 in0.0 mm 0.00 in/hr0.0 mm/hr 0.00 in0.0 mm
02:12 AM 32.2°F0.1°C 31.9°F-0.1°C 99% 2.3 mph NW3.7 kmh NW 3.1 mph5.0 kmh 29.59 in1002.0 mb 0.00 in0.0 mm 0.00 in/hr0.0 mm/hr 0.00 in0.0 mm
02:11 AM 32.2°F0.1°C 31.9°F-0.1°C 99% 2.3 mph NW3.7 kmh NW 3.1 mph5.0 kmh 29.59 in1002.0 mb 0.00 in0.0 mm 0.00 in/hr0.0 mm/hr 0.00 in0.0 mm
02:10 AM 32.2°F0.1°C 31.9°F-0.1°C 99% 2.3 mph NW3.7 kmh NW 3.1 mph5.0 kmh 29.59 in1002.0 mb 0.00 in0.0 mm 0.00 in/hr0.0 mm/hr 0.00 in0.0 mm
02:09 AM 32.2°F0.1°C 31.9°F-0.1°C 99% 2.2 mph NW3.5 kmh NW 3.1 mph5.0 kmh 29.59 in1002.0 mb 0.00 in0.0 mm 0.00 in/hr0.0 mm/hr 0.00 in0.0 mm
02:08 AM 32.2°F0.1°C 31.9°F-0.1°C 99% 2.1 mph NW3.4 kmh NW 3.1 mph5.0 kmh 29.59 in1002.0 mb 0.00 in0.0 mm 0.00 in/hr0.0 mm/hr 0.00 in0.0 mm
02:07 AM 32.2°F0.1°C 31.9°F-0.1°C 99% 2.1 mph NW3.4 kmh NW 2.2 mph3.5 kmh 29.59 in1002.0 mb 0.00 in0.0 mm 0.00 in/hr0.0 mm/hr 0.00 in0.0 mm
02:06 AM 32.2°F0.1°C 31.9°F-0.1°C 99% 2.0 mph NW3.2 kmh NW 2.2 mph3.5 kmh 29.59 in1002.0 mb 0.00 in0.0 mm 0.00 in/hr0.0 mm/hr 0.00 in0.0 mm
02:05 AM 32.2°F0.1°C 31.9°F-0.1°C 99% 1.9 mph NW3.1 kmh NW 2.2 mph3.5 kmh 29.59 in1002.0 mb 0.00 in0.0 mm 0.00 in/hr0.0 mm/hr 0.00 in0.0 mm
02:04 AM 32.2°F0.1°C 31.9°F-0.1°C 99% 1.9 mph NW3.1 kmh NW 2.2 mph3.5 kmh 29.59 in1002.0 mb 0.00 in0.0 mm 0.00 in/hr0.0 mm/hr 0.00 in0.0 mm
02:03 AM 32.2°F0.1°C 31.9°F-0.1°C 99% 1.9 mph NW3.1 kmh NW 2.2 mph3.5 kmh 29.59 in1002.0 mb 0.00 in0.0 mm 0.00 in/hr0.0 mm/hr 0.00 in0.0 mm
02:02 AM 32.2°F0.1°C 31.9°F-0.1°C 99% 1.9 mph NW3.1 kmh NW 2.2 mph3.5 kmh 29.59 in1002.0 mb 0.00 in0.0 mm 0.00 in/hr0.0 mm/hr 0.00 in0.0 mm
02:01 AM 32.2°F0.1°C 31.9°F-0.1°C 99% 1.8 mph NW2.9 kmh NW 2.2 mph3.5 kmh 29.59 in1002.0 mb 0.00 in0.0 mm 0.00 in/hr0.0 mm/hr 0.00 in0.0 mm
02:00 AM 32.2°F0.1°C 31.9°F-0.1°C 99% 1.9 mph NW3.1 kmh NW 2.2 mph3.5 kmh 29.59 in1002.0 mb 0.00 in0.0 mm 0.00 in/hr0.0 mm/hr 0.00 in0.0 mm
01:59 AM 32.2°F0.1°C 31.9°F-0.1°C 99% 1.9 mph NW3.1 kmh NW 3.1 mph5.0 kmh 29.59 in1002.0 mb 0.00 in0.0 mm 0.00 in/hr0.0 mm/hr 0.00 in0.0 mm
01:58 AM 32.2°F0.1°C 31.9°F-0.1°C 99% 2.0 mph NW3.2 kmh NW 3.1 mph5.0 kmh 29.59 in1002.0 mb 0.00 in0.0 mm 0.00 in/hr0.0 mm/hr 0.00 in0.0 mm
01:57 AM 32.2°F0.1°C 31.9°F-0.1°C 99% 2.0 mph NW3.2 kmh NW 3.1 mph5.0 kmh 29.59 in1002.0 mb 0.00 in0.0 mm 0.00 in/hr0.0 mm/hr 0.00 in0.0 mm
01:56 AM 32.2°F0.1°C 31.9°F-0.1°C 99% 2.1 mph NW3.4 kmh NW 3.1 mph5.0 kmh 29.59 in1002.0 mb 0.00 in0.0 mm 0.00 in/hr0.0 mm/hr 0.00 in0.0 mm
01:55 AM 32.2°F0.1°C 31.9°F-0.1°C 99% 2.1 mph NW3.4 kmh NW 3.1 mph5.0 kmh 29.59 in1002.0 mb 0.00 in0.0 mm 0.00 in/hr0.0 mm/hr 0.00 in0.0 mm
01:54 AM 32.2°F0.1°C 31.9°F-0.1°C 99% 2.1 mph NW3.4 kmh NW 3.1 mph5.0 kmh 29.59 in1002.0 mb 0.00 in0.0 mm 0.00 in/hr0.0 mm/hr 0.00 in0.0 mm
01:53 AM 32.2°F0.1°C 31.7°F-0.2°C 98% 2.0 mph NW3.2 kmh NW 3.1 mph5.0 kmh 29.59 in1002.0 mb 0.00 in0.0 mm 0.00 in/hr0.0 mm/hr 0.00 in0.0 mm
01:52 AM 32.0°F0.0°C 31.5°F-0.3°C 98% 2.0 mph NW3.2 kmh NW 3.1 mph5.0 kmh 29.59 in1002.0 mb 0.00 in0.0 mm 0.00 in/hr0.0 mm/hr 0.00 in0.0 mm
01:51 AM 32.0°F0.0°C 31.8°F-0.1°C 99% 2.0 mph NW3.2 kmh NW 3.1 mph5.0 kmh 29.59 in1002.0 mb 0.00 in0.0 mm 0.00 in/hr0.0 mm/hr 0.00 in0.0 mm
01:50 AM 32.0°F0.0°C 31.5°F-0.3°C 98% 1.9 mph NW3.1 kmh NW 3.1 mph5.0 kmh 29.59 in1002.0 mb 0.00 in0.0 mm 0.00 in/hr0.0 mm/hr 0.00 in0.0 mm
01:49 AM 32.0°F0.0°C 31.5°F-0.3°C 98% 1.9 mph NW3.1 kmh NW 3.1 mph5.0 kmh 29.59 in1002.0 mb 0.00 in0.0 mm 0.00 in/hr0.0 mm/hr 0.00 in0.0 mm
01:48 AM 32.0°F0.0°C 31.5°F-0.3°C 98% 1.7 mph NW2.7 kmh NW 2.2 mph3.5 kmh 29.59 in1002.0 mb 0.00 in0.0 mm 0.00 in/hr0.0 mm/hr 0.00 in0.0 mm
01:47 AM 32.0°F0.0°C 31.5°F-0.3°C 98% 1.5 mph NW2.4 kmh NW 2.2 mph3.5 kmh 29.59 in1002.0 mb 0.00 in0.0 mm 0.00 in/hr0.0 mm/hr 0.00 in0.0 mm
01:46 AM 31.8°F-0.1°C 31.3°F-0.4°C 98% 1.4 mph NW2.3 kmh NW 2.2 mph3.5 kmh 29.59 in1002.0 mb 0.00 in0.0 mm 0.00 in/hr0.0 mm/hr 0.00 in0.0 mm
01:45 AM 31.8°F-0.1°C 31.3°F-0.4°C 98% 1.2 mph NNW1.9 kmh NNW 2.2 mph3.5 kmh 29.59 in1002.0 mb 0.00 in0.0 mm 0.00 in/hr0.0 mm/hr 0.00 in0.0 mm
01:44 AM 31.8°F-0.1°C 31.3°F-0.4°C 98% 1.1 mph NNW1.8 kmh NNW 2.2 mph3.5 kmh 29.59 in1002.0 mb 0.00 in0.0 mm 0.00 in/hr0.0 mm/hr 0.00 in0.0 mm
01:43 AM 31.8°F-0.1°C 31.3°F-0.4°C 98% 1.0 mph NNW1.6 kmh NNW 2.2 mph3.5 kmh 29.59 in1002.0 mb 0.00 in0.0 mm 0.00 in/hr0.0 mm/hr 0.00 in0.0 mm
01:42 AM 32.0°F0.0°C 31.5°F-0.3°C 98% 0.9 mph NNW1.4 kmh NNW 2.2 mph3.5 kmh 29.59 in1002.0 mb 0.00 in0.0 mm 0.00 in/hr0.0 mm/hr 0.00 in0.0 mm
01:41 AM 32.0°F0.0°C 31.3°F-0.4°C 97% 0.8 mph NNW1.3 kmh NNW 2.2 mph3.5 kmh 29.59 in1002.0 mb 0.00 in0.0 mm 0.00 in/hr0.0 mm/hr 0.00 in0.0 mm
01:40 AM 32.0°F0.0°C 31.3°F-0.4°C 97% 0.6 mph NNW1.0 kmh NNW 2.2 mph3.5 kmh 29.59 in1002.0 mb 0.00 in0.0 mm 0.00 in/hr0.0 mm/hr 0.00 in0.0 mm
01:39 AM 32.0°F0.0°C 31.3°F-0.4°C 97% 0.5 mph N0.8 kmh N 1.6 mph2.6 kmh 29.59 in1002.0 mb 0.00 in0.0 mm 0.00 in/hr0.0 mm/hr 0.00 in0.0 mm
01:38 AM 32.0°F0.0°C 31.3°F-0.4°C 97% 0.4 mph N0.6 kmh N 0.7 mph1.1 kmh 29.59 in1002.0 mb 0.00 in0.0 mm 0.00 in/hr0.0 mm/hr 0.00 in0.0 mm
01:37 AM 32.2°F0.1°C 31.4°F-0.3°C 97% 0.4 mph N0.6 kmh N 0.7 mph1.1 kmh 29.59 in1002.0 mb 0.00 in0.0 mm 0.00 in/hr0.0 mm/hr 0.00 in0.0 mm
01:36 AM 32.2°F0.1°C 31.4°F-0.3°C 97% 0.4 mph N0.6 kmh N 0.7 mph1.1 kmh 29.59 in1002.0 mb 0.00 in0.0 mm 0.00 in/hr0.0 mm/hr 0.00 in0.0 mm
01:35 AM 32.2°F0.1°C 31.4°F-0.3°C 97% 0.3 mph NNW0.5 kmh NNW 0.7 mph1.1 kmh 29.59 in1002.0 mb 0.00 in0.0 mm 0.00 in/hr0.0 mm/hr 0.00 in0.0 mm
01:34 AM 32.4°F0.2°C 31.6°F-0.2°C 97% 0.2 mph NNW0.3 kmh NNW 0.7 mph1.1 kmh 29.59 in1002.0 mb 0.00 in0.0 mm 0.00 in/hr0.0 mm/hr 0.00 in0.0 mm
01:33 AM 32.4°F0.2°C 31.6°F-0.2°C 97% 0.2 mph NW0.3 kmh NW 0.7 mph1.1 kmh 29.59 in1002.0 mb 0.00 in0.0 mm 0.00 in/hr0.0 mm/hr 0.00 in0.0 mm
01:32 AM 32.4°F0.2°C 31.6°F-0.2°C 97% 0.2 mph NW0.3 kmh NW 0.7 mph1.1 kmh 29.59 in1002.0 mb 0.00 in0.0 mm 0.00 in/hr0.0 mm/hr 0.00 in0.0 mm
01:31 AM 32.4°F0.2°C 31.6°F-0.2°C 97% 0.1 mph NW0.2 kmh NW 0.7 mph1.1 kmh 29.59 in1002.0 mb 0.00 in0.0 mm 0.00 in/hr0.0 mm/hr 0.00 in0.0 mm
01:30 AM 32.5°F0.3°C 31.8°F-0.1°C 97% 0.1 mph NW0.2 kmh NW 0.7 mph1.1 kmh 29.59 in1002.0 mb 0.00 in0.0 mm 0.00 in/hr0.0 mm/hr 0.00 in0.0 mm
01:29 AM 32.5°F0.3°C 31.8°F-0.1°C 97% 0.1 mph NW0.2 kmh NW 0.7 mph1.1 kmh 29.59 in1002.0 mb 0.00 in0.0 mm 0.00 in/hr0.0 mm/hr 0.00 in0.0 mm
01:28 AM 32.5°F0.3°C 31.8°F-0.1°C 97% 0.1 mph NW0.2 kmh NW 0.7 mph1.1 kmh 29.59 in1002.0 mb 0.00 in0.0 mm 0.00 in/hr0.0 mm/hr 0.00 in0.0 mm
01:27 AM 32.7°F0.4°C 32.0°F0.0°C 97% 0.2 mph NW0.3 kmh NW 0.7 mph1.1 kmh 29.59 in1002.0 mb 0.00 in0.0 mm 0.00 in/hr0.0 mm/hr 0.00 in0.0 mm
01:26 AM 32.7°F0.4°C 32.0°F0.0°C 97% 0.2 mph NW0.3 kmh NW 0.7 mph1.1 kmh 29.59 in1002.0 mb 0.00 in0.0 mm 0.00 in/hr0.0 mm/hr 0.00 in0.0 mm
01:25 AM 32.7°F0.4°C 32.0°F0.0°C 97% 0.2 mph NW0.3 kmh NW 0.7 mph1.1 kmh 29.59 in1002.0 mb 0.00 in0.0 mm 0.00 in/hr0.0 mm/hr 0.00 in0.0 mm
01:24 AM 32.9°F0.5°C 32.2°F0.1°C 97% 0.3 mph NW0.5 kmh NW 1.6 mph2.6 kmh 29.59 in1002.0 mb 0.00 in0.0 mm 0.00 in/hr0.0 mm/hr 0.00 in0.0 mm
01:23 AM 32.9°F0.5°C 32.2°F0.1°C 97% 0.4 mph NW0.6 kmh NW 1.6 mph2.6 kmh 29.59 in1002.0 mb 0.00 in0.0 mm 0.00 in/hr0.0 mm/hr 0.00 in0.0 mm
01:22 AM 32.9°F0.5°C 32.2°F0.1°C 97% 0.5 mph NW0.8 kmh NW 1.6 mph2.6 kmh 29.59 in1002.0 mb 0.00 in0.0 mm 0.00 in/hr0.0 mm/hr 0.00 in0.0 mm
01:21 AM 32.9°F0.5°C 32.2°F0.1°C 97% 0.7 mph NW1.1 kmh NW 1.6 mph2.6 kmh 29.59 in1002.0 mb 0.00 in0.0 mm 0.00 in/hr0.0 mm/hr 0.00 in0.0 mm
01:20 AM 33.1°F0.6°C 32.3°F0.2°C 97% 0.7 mph NW1.1 kmh NW 1.6 mph2.6 kmh 29.59 in1002.0 mb 0.00 in0.0 mm 0.00 in/hr0.0 mm/hr 0.00 in0.0 mm
01:19 AM 33.1°F0.6°C 32.3°F0.2°C 97% 0.8 mph NW1.3 kmh NW 1.6 mph2.6 kmh 29.59 in1002.0 mb 0.00 in0.0 mm 0.00 in/hr0.0 mm/hr 0.00 in0.0 mm
01:18 AM 33.1°F0.6°C 32.3°F0.2°C 97% 0.8 mph NW1.3 kmh NW 1.6 mph2.6 kmh 29.59 in1002.0 mb 0.00 in0.0 mm 0.00 in/hr0.0 mm/hr 0.00 in0.0 mm
01:17 AM 33.1°F0.6°C 32.3°F0.2°C 97% 0.9 mph NW1.4 kmh NW 1.6 mph2.6 kmh 29.59 in1002.0 mb 0.00 in0.0 mm 0.00 in/hr0.0 mm/hr 0.00 in0.0 mm
01:16 AM 33.1°F0.6°C 32.3°F0.2°C 97% 0.9 mph NW1.4 kmh NW 1.6 mph2.6 kmh 29.59 in1002.0 mb 0.00 in0.0 mm 0.00 in/hr0.0 mm/hr 0.00 in0.0 mm
01:15 AM 33.3°F0.7°C 32.5°F0.3°C 97% 1.0 mph NW1.6 kmh NW 1.6 mph2.6 kmh 29.59 in1002.0 mb 0.00 in0.0 mm 0.00 in/hr0.0 mm/hr 0.00 in0.0 mm
01:14 AM 33.3°F0.7°C 32.5°F0.3°C 97% 1.0 mph NW1.6 kmh NW 1.6 mph2.6 kmh 29.59 in1002.0 mb 0.00 in0.0 mm 0.00 in/hr0.0 mm/hr 0.00 in0.0 mm
01:13 AM 33.3°F0.7°C 32.5°F0.3°C 97% 1.0 mph NW1.6 kmh NW 1.6 mph2.6 kmh 29.58 in1001.7 mb 0.00 in0.0 mm 0.00 in/hr0.0 mm/hr 0.00 in0.0 mm
01:12 AM 33.3°F0.7°C 32.5°F0.3°C 97% 1.0 mph NW1.6 kmh NW 1.6 mph2.6 kmh 29.59 in1002.0 mb 0.00 in0.0 mm 0.00 in/hr0.0 mm/hr 0.00 in0.0 mm
01:11 AM 33.3°F0.7°C 32.5°F0.3°C 97% 0.9 mph NW1.4 kmh NW 1.6 mph2.6 kmh 29.58 in1001.7 mb 0.00 in0.0 mm 0.00 in/hr0.0 mm/hr 0.00 in0.0 mm
01:10 AM 33.4°F0.8°C 32.7°F0.4°C 97% 0.9 mph NW1.4 kmh NW 1.6 mph2.6 kmh 29.59 in1002.0 mb 0.00 in0.0 mm 0.00 in/hr0.0 mm/hr 0.00 in0.0 mm
01:09 AM 33.4°F0.8°C 32.7°F0.4°C 97% 0.8 mph NW1.3 kmh NW 1.6 mph2.6 kmh 29.59 in1002.0 mb 0.00 in0.0 mm 0.00 in/hr0.0 mm/hr 0.00 in0.0 mm
01:08 AM 33.4°F0.8°C 32.7°F0.4°C 97% 0.9 mph NW1.4 kmh NW 1.6 mph2.6 kmh 29.58 in1001.7 mb 0.00 in0.0 mm 0.00 in/hr0.0 mm/hr 0.00 in0.0 mm
01:07 AM 33.4°F0.8°C 32.7°F0.4°C 97% 1.0 mph NW1.6 kmh NW 1.6 mph2.6 kmh 29.58 in1001.7 mb 0.00 in0.0 mm 0.00 in/hr0.0 mm/hr 0.00 in0.0 mm
01:06 AM 33.6°F0.9°C 32.9°F0.5°C 97% 1.1 mph NW1.8 kmh NW 1.6 mph2.6 kmh 29.58 in1001.7 mb 0.00 in0.0 mm 0.00 in/hr0.0 mm/hr 0.00 in0.0 mm
01:05 AM 33.6°F0.9°C 32.9°F0.5°C 97% 1.1 mph NW1.8 kmh NW 1.6 mph2.6 kmh 29.58 in1001.7 mb 0.00 in0.0 mm 0.00 in/hr0.0 mm/hr 0.00 in0.0 mm
01:04 AM 33.6°F0.9°C 32.9°F0.5°C 97% 1.2 mph NW1.9 kmh NW 2.2 mph3.5 kmh 29.59 in1002.0 mb 0.00 in0.0 mm 0.00 in/hr0.0 mm/hr 0.00 in0.0 mm
01:03 AM 33.6°F0.9°C 32.9°F0.5°C 97% 1.4 mph NW2.3 kmh NW 2.2 mph3.5 kmh 29.59 in1002.0 mb 0.00 in0.0 mm 0.00 in/hr0.0 mm/hr 0.00 in0.0 mm
01:02 AM 33.6°F0.9°C 32.9°F0.5°C 97% 1.4 mph NW2.3 kmh NW 2.2 mph3.5 kmh 29.58 in1001.7 mb 0.00 in0.0 mm 0.00 in/hr0.0 mm/hr 0.00 in0.0 mm
01:01 AM 33.6°F0.9°C 32.9°F0.5°C 97% 1.5 mph NW2.4 kmh NW 2.2 mph3.5 kmh 29.58 in1001.7 mb 0.00 in0.0 mm 0.00 in/hr0.0 mm/hr 0.00 in0.0 mm
01:00 AM 33.6°F0.9°C 32.9°F0.5°C 97% 1.5 mph NW2.4 kmh NW 2.2 mph3.5 kmh 29.58 in1001.7 mb 0.00 in0.0 mm 0.00 in/hr0.0 mm/hr 0.00 in0.0 mm
12:59 AM 33.6°F0.9°C 32.9°F0.5°C 97% 1.6 mph NW2.6 kmh NW 2.2 mph3.5 kmh 29.58 in1001.7 mb 0.00 in0.0 mm 0.00 in/hr0.0 mm/hr 0.00 in0.0 mm
12:58 AM 33.4°F0.8°C 32.4°F0.2°C 96% 1.6 mph NW2.6 kmh NW 2.2 mph3.5 kmh 29.58 in1001.7 mb 0.00 in0.0 mm 0.00 in/hr0.0 mm/hr 0.00 in0.0 mm
12:57 AM 33.4°F0.8°C 32.7°F0.4°C 97% 1.7 mph NW2.7 kmh NW 3.1 mph5.0 kmh 29.58 in1001.7 mb 0.00 in0.0 mm 0.00 in/hr0.0 mm/hr 0.00 in0.0 mm
12:56 AM 33.4°F0.8°C 32.4°F0.2°C 96% 1.7 mph NW2.7 kmh NW 3.1 mph5.0 kmh 29.58 in1001.7 mb 0.00 in0.0 mm 0.00 in/hr0.0 mm/hr 0.00 in0.0 mm
12:55 AM 33.4°F0.8°C 32.4°F0.2°C 96% 1.9 mph NW3.1 kmh NW 3.1 mph5.0 kmh 29.58 in1001.7 mb 0.00 in0.0 mm 0.00 in/hr0.0 mm/hr 0.00 in0.0 mm
12:54 AM 33.4°F0.8°C 32.4°F0.2°C 96% 1.9 mph NW3.1 kmh NW 3.1 mph5.0 kmh 29.58 in1001.7 mb 0.00 in0.0 mm 0.00 in/hr0.0 mm/hr 0.00 in0.0 mm
12:53 AM 33.4°F0.8°C 32.4°F0.2°C 96% 1.9 mph NW3.1 kmh NW 3.1 mph5.0 kmh 29.58 in1001.7 mb 0.00 in0.0 mm 0.00 in/hr0.0 mm/hr 0.00 in0.0 mm
12:52 AM 33.4°F0.8°C 32.4°F0.2°C 96% 1.9 mph NW3.1 kmh NW 3.1 mph5.0 kmh 29.58 in1001.7 mb 0.00 in0.0 mm 0.00 in/hr0.0 mm/hr 0.00 in0.0 mm
12:51 AM 33.4°F0.8°C 32.4°F0.2°C 96% 1.9 mph NW3.1 kmh NW 3.1 mph5.0 kmh 29.58 in1001.7 mb 0.00 in0.0 mm 0.00 in/hr0.0 mm/hr 0.00 in0.0 mm
12:50 AM 33.3°F0.7°C 32.3°F0.2°C 96% 2.1 mph NW3.4 kmh NW 3.1 mph5.0 kmh 29.58 in1001.7 mb 0.00 in0.0 mm 0.00 in/hr0.0 mm/hr 0.00 in0.0 mm
12:49 AM 33.3°F0.7°C 32.3°F0.2°C 96% 2.0 mph NW3.2 kmh NW 3.1 mph5.0 kmh 29.58 in1001.7 mb 0.00 in0.0 mm 0.00 in/hr0.0 mm/hr 0.00 in0.0 mm
12:48 AM 33.3°F0.7°C 32.3°F0.2°C 96% 1.9 mph NW3.1 kmh NW 3.1 mph5.0 kmh 29.58 in1001.7 mb 0.00 in0.0 mm 0.00 in/hr0.0 mm/hr 0.00 in0.0 mm
12:47 AM 33.3°F0.7°C 32.0°F0.0°C 95% 1.8 mph NW2.9 kmh NW 3.1 mph5.0 kmh 29.58 in1001.7 mb 0.00 in0.0 mm 0.00 in/hr0.0 mm/hr 0.00 in0.0 mm
12:46 AM 33.3°F0.7°C 32.0°F0.0°C 95% 1.6 mph NW2.6 kmh NW 3.1 mph5.0 kmh 29.58 in1001.7 mb 0.00 in0.0 mm 0.00 in/hr0.0 mm/hr 0.00 in0.0 mm
12:45 AM 33.3°F0.7°C 32.0°F0.0°C 95% 1.3 mph NW2.1 kmh NW 3.1 mph5.0 kmh 29.58 in1001.7 mb 0.00 in0.0 mm 0.00 in/hr0.0 mm/hr 0.00 in0.0 mm
12:44 AM 33.3°F0.7°C 32.0°F0.0°C 95% 1.1 mph NW1.8 kmh NW 3.1 mph5.0 kmh 29.58 in1001.7 mb 0.00 in0.0 mm 0.00 in/hr0.0 mm/hr 0.00 in0.0 mm
12:43 AM 33.4°F0.8°C 32.2°F0.1°C 95% 0.8 mph NW1.3 kmh NW 2.2 mph3.5 kmh 29.58 in1001.7 mb 0.00 in0.0 mm 0.00 in/hr0.0 mm/hr 0.00 in0.0 mm
12:42 AM 33.4°F0.8°C 32.2°F0.1°C 95% 0.6 mph NW1.0 kmh NW 2.2 mph3.5 kmh 29.58 in1001.7 mb 0.00 in0.0 mm 0.00 in/hr0.0 mm/hr 0.00 in0.0 mm
12:41 AM 33.4°F0.8°C 32.2°F0.1°C 95% 0.5 mph NW0.8 kmh NW 2.2 mph3.5 kmh 29.58 in1001.7 mb 0.00 in0.0 mm 0.00 in/hr0.0 mm/hr 0.00 in0.0 mm
12:40 AM 33.4°F0.8°C 32.2°F0.1°C 95% 0.4 mph NW0.6 kmh NW 1.6 mph2.6 kmh 29.58 in1001.7 mb 0.00 in0.0 mm 0.00 in/hr0.0 mm/hr 0.00 in0.0 mm
12:39 AM 33.6°F0.9°C 32.3°F0.2°C 95% 0.4 mph NW0.6 kmh NW 1.6 mph2.6 kmh 29.58 in1001.7 mb 0.00 in0.0 mm 0.00 in/hr0.0 mm/hr 0.00 in0.0 mm
12:38 AM 33.6°F0.9°C 32.3°F0.2°C 95% 0.5 mph NW0.8 kmh NW 1.6 mph2.6 kmh 29.58 in1001.7 mb 0.00 in0.0 mm 0.00 in/hr0.0 mm/hr 0.00 in0.0 mm
12:37 AM 33.6°F0.9°C 32.3°F0.2°C 95% 0.4 mph NW0.6 kmh NW 1.6 mph2.6 kmh 29.58 in1001.7 mb 0.00 in0.0 mm 0.00 in/hr0.0 mm/hr 0.00 in0.0 mm
12:36 AM 33.8°F1.0°C 32.5°F0.3°C 95% 0.5 mph NW0.8 kmh NW 1.6 mph2.6 kmh 29.58 in1001.7 mb 0.00 in0.0 mm 0.00 in/hr0.0 mm/hr 0.00 in0.0 mm
12:35 AM 33.8°F1.0°C 32.5°F0.3°C 95% 0.5 mph NW0.8 kmh NW 1.6 mph2.6 kmh 29.57 in1001.4 mb 0.00 in0.0 mm 0.00 in/hr0.0 mm/hr 0.00 in0.0 mm
12:34 AM 33.8°F1.0°C 32.5°F0.3°C 95% 0.7 mph NW1.1 kmh NW 1.6 mph2.6 kmh 29.58 in1001.7 mb 0.00 in0.0 mm 0.00 in/hr0.0 mm/hr 0.00 in0.0 mm
12:33 AM 34.0°F1.1°C 32.7°F0.4°C 95% 0.8 mph NW1.3 kmh NW 1.6 mph2.6 kmh 29.58 in1001.7 mb 0.00 in0.0 mm 0.00 in/hr0.0 mm/hr 0.00 in0.0 mm
12:32 AM 34.0°F1.1°C 32.7°F0.4°C 95% 0.9 mph NW1.4 kmh NW 1.6 mph2.6 kmh 29.58 in1001.7 mb 0.00 in0.0 mm 0.00 in/hr0.0 mm/hr 0.00 in0.0 mm
12:31 AM 34.0°F1.1°C 32.7°F0.4°C 95% 1.0 mph NW1.6 kmh NW 1.6 mph2.6 kmh 29.58 in1001.7 mb 0.00 in0.0 mm 0.00 in/hr0.0 mm/hr 0.00 in0.0 mm
12:30 AM 34.0°F1.1°C 32.7°F0.4°C 95% 1.0 mph NW1.6 kmh NW 1.6 mph2.6 kmh 29.58 in1001.7 mb 0.00 in0.0 mm 0.00 in/hr0.0 mm/hr 0.00 in0.0 mm
12:29 AM 34.2°F1.2°C 32.9°F0.5°C 95% 1.0 mph NW1.6 kmh NW 1.6 mph2.6 kmh 29.58 in1001.7 mb 0.00 in0.0 mm 0.00 in/hr0.0 mm/hr 0.00 in0.0 mm
12:28 AM 34.2°F1.2°C 32.9°F0.5°C 95% 0.9 mph NW1.4 kmh NW 1.6 mph2.6 kmh 29.58 in1001.7 mb 0.00 in0.0 mm 0.00 in/hr0.0 mm/hr 0.00 in0.0 mm
12:27 AM 34.2°F1.2°C 32.6°F0.3°C 94% 1.0 mph NW1.6 kmh NW 1.6 mph2.6 kmh 29.58 in1001.7 mb 0.00 in0.0 mm 0.00 in/hr0.0 mm/hr 0.00 in0.0 mm
12:26 AM 34.3°F1.3°C 32.8°F0.4°C 94% 1.0 mph NW1.6 kmh NW 1.6 mph2.6 kmh 29.57 in1001.4 mb 0.00 in0.0 mm 0.00 in/hr0.0 mm/hr 0.00 in0.0 mm
12:25 AM 34.3°F1.3°C 32.8°F0.4°C 94% 0.9 mph NW1.4 kmh NW 1.6 mph2.6 kmh 29.57 in1001.4 mb 0.00 in0.0 mm 0.00 in/hr0.0 mm/hr 0.00 in0.0 mm
12:24 AM 34.3°F1.3°C 33.1°F0.6°C 95% 0.8 mph NW1.3 kmh NW 1.6 mph2.6 kmh 29.57 in1001.4 mb 0.00 in0.0 mm 0.00 in/hr0.0 mm/hr 0.00 in0.0 mm
12:23 AM 34.3°F1.3°C 33.1°F0.6°C 95% 0.8 mph NW1.3 kmh NW 1.6 mph2.6 kmh 29.58 in1001.7 mb 0.00 in0.0 mm 0.00 in/hr0.0 mm/hr 0.00 in0.0 mm
12:22 AM 34.5°F1.4°C 33.0°F0.6°C 94% 0.7 mph NW1.1 kmh NW 1.6 mph2.6 kmh 29.57 in1001.4 mb 0.00 in0.0 mm 0.00 in/hr0.0 mm/hr 0.00 in0.0 mm
12:21 AM 34.5°F1.4°C 33.0°F0.6°C 94% 0.7 mph NW1.1 kmh NW 1.6 mph2.6 kmh 29.57 in1001.4 mb 0.00 in0.0 mm 0.00 in/hr0.0 mm/hr 0.00 in0.0 mm
12:20 AM 34.5°F1.4°C 33.0°F0.6°C 94% 0.9 mph NW1.4 kmh NW 3.1 mph5.0 kmh 29.58 in1001.7 mb 0.00 in0.0 mm 0.00 in/hr0.0 mm/hr 0.00 in0.0 mm
12:19 AM 34.5°F1.4°C 33.0°F0.6°C 94% 0.8 mph NW1.3 kmh NW 3.1 mph5.0 kmh 29.58 in1001.7 mb 0.00 in0.0 mm 0.00 in/hr0.0 mm/hr 0.00 in0.0 mm
12:18 AM 34.7°F1.5°C 33.2°F0.7°C 94% 1.0 mph NW1.6 kmh NW 3.1 mph5.0 kmh 29.57 in1001.4 mb 0.00 in0.0 mm 0.00 in/hr0.0 mm/hr 0.00 in0.0 mm
12:17 AM 34.7°F1.5°C 33.2°F0.7°C 94% 1.1 mph NW1.8 kmh NW 3.1 mph5.0 kmh 29.57 in1001.4 mb 0.00 in0.0 mm 0.00 in/hr0.0 mm/hr 0.00 in0.0 mm
12:16 AM 34.7°F1.5°C 33.2°F0.7°C 94% 1.1 mph NW1.8 kmh NW 3.1 mph5.0 kmh 29.57 in1001.4 mb 0.00 in0.0 mm 0.00 in/hr0.0 mm/hr 0.00 in0.0 mm
12:15 AM 34.7°F1.5°C 33.2°F0.7°C 94% 1.5 mph NW2.4 kmh NW 3.8 mph6.1 kmh 29.57 in1001.4 mb 0.00 in0.0 mm 0.00 in/hr0.0 mm/hr 0.00 in0.0 mm
12:14 AM 34.7°F1.5°C 33.2°F0.7°C 94% 1.8 mph NW2.9 kmh NW 3.8 mph6.1 kmh 29.57 in1001.4 mb 0.00 in0.0 mm 0.00 in/hr0.0 mm/hr 0.00 in0.0 mm
12:13 AM 34.9°F1.6°C 33.3°F0.7°C 94% 1.9 mph NW3.1 kmh NW 3.8 mph6.1 kmh 29.57 in1001.4 mb 0.00 in0.0 mm 0.00 in/hr0.0 mm/hr 0.00 in0.0 mm
12:12 AM 34.9°F1.6°C 33.3°F0.7°C 94% 2.0 mph NW3.2 kmh NW 3.8 mph6.1 kmh 29.57 in1001.4 mb 0.00 in0.0 mm 0.00 in/hr0.0 mm/hr 0.00 in0.0 mm
12:11 AM 34.9°F1.6°C 33.3°F0.7°C 94% 2.0 mph NW3.2 kmh NW 3.8 mph6.1 kmh 29.57 in1001.4 mb 0.00 in0.0 mm 0.00 in/hr0.0 mm/hr 0.00 in0.0 mm
12:10 AM 34.9°F1.6°C 33.3°F0.7°C 94% 1.8 mph NW2.9 kmh NW 3.8 mph6.1 kmh 29.57 in1001.4 mb 0.00 in0.0 mm 0.00 in/hr0.0 mm/hr 0.00 in0.0 mm
12:09 AM 34.9°F1.6°C 33.3°F0.7°C 94% 1.9 mph NW3.1 kmh NW 3.8 mph6.1 kmh 29.57 in1001.4 mb 0.00 in0.0 mm 0.00 in/hr0.0 mm/hr 0.00 in0.0 mm
12:08 AM 34.9°F1.6°C 33.3°F0.7°C 94% 1.9 mph WNW3.1 kmh WNW 3.8 mph6.1 kmh 29.57 in1001.4 mb 0.00 in0.0 mm 0.00 in/hr0.0 mm/hr 0.00 in0.0 mm
12:07 AM 34.9°F1.6°C 33.3°F0.7°C 94% 1.8 mph WNW2.9 kmh WNW 3.8 mph6.1 kmh 29.57 in1001.4 mb 0.00 in0.0 mm 0.00 in/hr0.0 mm/hr 0.00 in0.0 mm
12:06 AM 34.9°F1.6°C 33.1°F0.6°C 93% 1.8 mph WNW2.9 kmh WNW 3.8 mph6.1 kmh 29.57 in1001.4 mb 0.00 in0.0 mm 0.00 in/hr0.0 mm/hr 0.00 in0.0 mm
12:05 AM 34.9°F1.6°C 33.1°F0.6°C 93% 1.5 mph WNW2.4 kmh WNW 3.8 mph6.1 kmh 29.57 in1001.4 mb 0.00 in0.0 mm 0.00 in/hr0.0 mm/hr 0.00 in0.0 mm
12:04 AM 34.9°F1.6°C 33.1°F0.6°C 93% 1.3 mph W2.1 kmh W 3.8 mph6.1 kmh 29.57 in1001.4 mb 0.00 in0.0 mm 0.00 in/hr0.0 mm/hr 0.00 in0.0 mm
12:03 AM 34.9°F1.6°C 33.1°F0.6°C 93% 1.3 mph W2.1 kmh W 2.2 mph3.5 kmh 29.57 in1001.4 mb 0.00 in0.0 mm 0.00 in/hr0.0 mm/hr 0.00 in0.0 mm
12:02 AM 34.9°F1.6°C 33.1°F0.6°C 93% 1.3 mph W2.1 kmh W 2.2 mph3.5 kmh 29.57 in1001.4 mb 0.00 in0.0 mm 0.00 in/hr0.0 mm/hr 0.00 in0.0 mm
12:01 AM 34.9°F1.6°C 33.1°F0.6°C 93% 1.3 mph W2.1 kmh W 2.2 mph3.5 kmh 29.57 in1001.4 mb 0.00 in0.0 mm 0.00 in/hr0.0 mm/hr 0.00 in0.0 mm
12:00 AM 34.9°F1.6°C 33.1°F0.6°C 93% 1.5 mph W2.4 kmh W 3.1 mph5.0 kmh 29.57 in1001.4 mb 0.00 in0.0 mm 0.00 in/hr0.0 mm/hr 0.00 in0.0 mm